<?xml version="1.0" encoding="UTF-8" standalone="no" ?>
<gpx xmlns="http://www.topografix.com/GPX/1/1" xmlns:xsi="http://www.w3.org/2001/XMLSchema-instance" xsi:schemaLocation="http://www.topografix.com/GPX/1/1 http://www.topografix.com/GPX/1/1/gpx.xsd" version="1.1" creator="VisuGPX - https://www.visugpx.com">
  <metadata>
    <name>Crussac (Aubrac)</name>
    <desc><![CDATA[File with points/tracks from Locus Map/4.15.2]]></desc>
  </metadata>
  <trk>
    <name><![CDATA[2023-04-18 13:15]]></name>
    <extensions>
      <line xmlns="http://www.topografix.com/GPX/gpx_style/0/2">
        <color>0000FF</color>
        <opacity>0.59</opacity>
        <width>6.0</width>
      </line>
    </extensions>
    <trkseg>
      <trkpt lat="44.59842" lon="2.66178">
        <ele>668.28</ele>
        <time>2023-04-18T11:15:06.574Z</time>
      </trkpt>
      <trkpt lat="44.59841" lon="2.66179">
        <ele>668.17</ele>
        <time>2023-04-18T11:15:16.575Z</time>
      </trkpt>
      <trkpt lat="44.59841" lon="2.66177">
        <ele>664.4</ele>
        <time>2023-04-18T11:17:06.593Z</time>
      </trkpt>
      <trkpt lat="44.59841" lon="2.66179">
        <ele>666.95</ele>
        <time>2023-04-18T11:17:33.596Z</time>
      </trkpt>
      <trkpt lat="44.59837" lon="2.66192">
        <ele>670.15</ele>
        <time>2023-04-18T11:17:43.600Z</time>
      </trkpt>
      <trkpt lat="44.59829" lon="2.66203">
        <ele>671.22</ele>
        <time>2023-04-18T11:17:53.932Z</time>
      </trkpt>
      <trkpt lat="44.59818" lon="2.66205">
        <ele>671.28</ele>
        <time>2023-04-18T11:18:04.221Z</time>
      </trkpt>
      <trkpt lat="44.59806" lon="2.66208">
        <ele>672.22</ele>
        <time>2023-04-18T11:18:14.492Z</time>
      </trkpt>
      <trkpt lat="44.59793" lon="2.66212">
        <ele>673.22</ele>
        <time>2023-04-18T11:18:24.932Z</time>
      </trkpt>
      <trkpt lat="44.59781" lon="2.66213">
        <ele>673.22</ele>
        <time>2023-04-18T11:18:35.311Z</time>
      </trkpt>
      <trkpt lat="44.59767" lon="2.66217">
        <ele>672.22</ele>
        <time>2023-04-18T11:18:45.642Z</time>
      </trkpt>
      <trkpt lat="44.59756" lon="2.66222">
        <ele>671.15</ele>
        <time>2023-04-18T11:18:56.152Z</time>
      </trkpt>
      <trkpt lat="44.59743" lon="2.66221">
        <ele>670.22</ele>
        <time>2023-04-18T11:19:06.492Z</time>
      </trkpt>
      <trkpt lat="44.59731" lon="2.66222">
        <ele>670.22</ele>
        <time>2023-04-18T11:19:16.861Z</time>
      </trkpt>
      <trkpt lat="44.59718" lon="2.66224">
        <ele>671.22</ele>
        <time>2023-04-18T11:19:27.242Z</time>
      </trkpt>
      <trkpt lat="44.59705" lon="2.66228">
        <ele>672.22</ele>
        <time>2023-04-18T11:19:37.642Z</time>
      </trkpt>
      <trkpt lat="44.59692" lon="2.66232">
        <ele>673.22</ele>
        <time>2023-04-18T11:19:48.172Z</time>
      </trkpt>
      <trkpt lat="44.59685" lon="2.66234">
        <ele>673.22</ele>
        <time>2023-04-18T11:19:58.642Z</time>
      </trkpt>
      <trkpt lat="44.59672" lon="2.66237">
        <ele>673.26</ele>
        <time>2023-04-18T11:20:09.062Z</time>
      </trkpt>
      <trkpt lat="44.59658" lon="2.6624">
        <ele>674.22</ele>
        <time>2023-04-18T11:20:19.611Z</time>
      </trkpt>
      <trkpt lat="44.59646" lon="2.66245">
        <ele>674.22</ele>
        <time>2023-04-18T11:20:30.523Z</time>
      </trkpt>
      <trkpt lat="44.59632" lon="2.66248">
        <ele>673.97</ele>
        <time>2023-04-18T11:20:41.034Z</time>
      </trkpt>
      <trkpt lat="44.5962" lon="2.66254">
        <ele>674.22</ele>
        <time>2023-04-18T11:20:51.472Z</time>
      </trkpt>
      <trkpt lat="44.59608" lon="2.6626">
        <ele>674.22</ele>
        <time>2023-04-18T11:21:01.872Z</time>
      </trkpt>
      <trkpt lat="44.59598" lon="2.66262">
        <ele>673.22</ele>
        <time>2023-04-18T11:21:12.182Z</time>
      </trkpt>
      <trkpt lat="44.59587" lon="2.6626">
        <ele>674.15</ele>
        <time>2023-04-18T11:21:22.192Z</time>
      </trkpt>
      <trkpt lat="44.59586" lon="2.66262">
        <ele>673.22</ele>
        <time>2023-04-18T11:21:32.212Z</time>
      </trkpt>
      <trkpt lat="44.59573" lon="2.66261">
        <ele>674.22</ele>
        <time>2023-04-18T11:21:42.283Z</time>
      </trkpt>
      <trkpt lat="44.59559" lon="2.66256">
        <ele>674.22</ele>
        <time>2023-04-18T11:21:52.712Z</time>
      </trkpt>
      <trkpt lat="44.59546" lon="2.66252">
        <ele>674.22</ele>
        <time>2023-04-18T11:22:03.174Z</time>
      </trkpt>
      <trkpt lat="44.59533" lon="2.66248">
        <ele>674.22</ele>
        <time>2023-04-18T11:22:13.582Z</time>
      </trkpt>
      <trkpt lat="44.5952" lon="2.66243">
        <ele>674.2</ele>
        <time>2023-04-18T11:22:23.952Z</time>
      </trkpt>
      <trkpt lat="44.59507" lon="2.66239">
        <ele>673.28</ele>
        <time>2023-04-18T11:22:34.432Z</time>
      </trkpt>
      <trkpt lat="44.59496" lon="2.66233">
        <ele>674.2</ele>
        <time>2023-04-18T11:22:44.451Z</time>
      </trkpt>
      <trkpt lat="44.59483" lon="2.66231">
        <ele>673.22</ele>
        <time>2023-04-18T11:22:54.762Z</time>
      </trkpt>
      <trkpt lat="44.5947" lon="2.66228">
        <ele>674.22</ele>
        <time>2023-04-18T11:23:04.916Z</time>
      </trkpt>
      <trkpt lat="44.59459" lon="2.66221">
        <ele>674.22</ele>
        <time>2023-04-18T11:23:15.321Z</time>
      </trkpt>
      <trkpt lat="44.5945" lon="2.66213">
        <ele>676.22</ele>
        <time>2023-04-18T11:23:25.752Z</time>
      </trkpt>
      <trkpt lat="44.59439" lon="2.66204">
        <ele>677.22</ele>
        <time>2023-04-18T11:23:36.007Z</time>
      </trkpt>
      <trkpt lat="44.59426" lon="2.66199">
        <ele>678.22</ele>
        <time>2023-04-18T11:23:46.392Z</time>
      </trkpt>
      <trkpt lat="44.59413" lon="2.66195">
        <ele>678.22</ele>
        <time>2023-04-18T11:23:56.412Z</time>
      </trkpt>
      <trkpt lat="44.59401" lon="2.66185">
        <ele>678.22</ele>
        <time>2023-04-18T11:24:06.971Z</time>
      </trkpt>
      <trkpt lat="44.59388" lon="2.66179">
        <ele>679.22</ele>
        <time>2023-04-18T11:24:17.533Z</time>
      </trkpt>
      <trkpt lat="44.59378" lon="2.6617">
        <ele>678.22</ele>
        <time>2023-04-18T11:24:28.011Z</time>
      </trkpt>
      <trkpt lat="44.59369" lon="2.66159">
        <ele>679.22</ele>
        <time>2023-04-18T11:24:38.263Z</time>
      </trkpt>
      <trkpt lat="44.5936" lon="2.66147">
        <ele>680.98</ele>
        <time>2023-04-18T11:24:48.721Z</time>
      </trkpt>
      <trkpt lat="44.5935" lon="2.66135">
        <ele>682.22</ele>
        <time>2023-04-18T11:24:59.171Z</time>
      </trkpt>
      <trkpt lat="44.5934" lon="2.66123">
        <ele>684.97</ele>
        <time>2023-04-18T11:25:09.521Z</time>
      </trkpt>
      <trkpt lat="44.59331" lon="2.66109">
        <ele>687.2</ele>
        <time>2023-04-18T11:25:19.932Z</time>
      </trkpt>
      <trkpt lat="44.59321" lon="2.66095">
        <ele>686.99</ele>
        <time>2023-04-18T11:25:30.422Z</time>
      </trkpt>
      <trkpt lat="44.5931" lon="2.6608">
        <ele>685.22</ele>
        <time>2023-04-18T11:25:40.821Z</time>
      </trkpt>
      <trkpt lat="44.593" lon="2.66068">
        <ele>684.22</ele>
        <time>2023-04-18T11:25:51.274Z</time>
      </trkpt>
      <trkpt lat="44.59291" lon="2.66055">
        <ele>684.22</ele>
        <time>2023-04-18T11:26:01.642Z</time>
      </trkpt>
      <trkpt lat="44.59279" lon="2.66047">
        <ele>684.22</ele>
        <time>2023-04-18T11:26:12.060Z</time>
      </trkpt>
      <trkpt lat="44.59268" lon="2.66041">
        <ele>685.22</ele>
        <time>2023-04-18T11:26:22.462Z</time>
      </trkpt>
      <trkpt lat="44.59258" lon="2.66035">
        <ele>687.22</ele>
        <time>2023-04-18T11:26:32.922Z</time>
      </trkpt>
      <trkpt lat="44.59246" lon="2.66032">
        <ele>687.22</ele>
        <time>2023-04-18T11:26:43.222Z</time>
      </trkpt>
      <trkpt lat="44.59237" lon="2.66026">
        <ele>689.41</ele>
        <time>2023-04-18T11:26:53.571Z</time>
      </trkpt>
      <trkpt lat="44.59225" lon="2.66025">
        <ele>691.23</ele>
        <time>2023-04-18T11:27:03.981Z</time>
      </trkpt>
      <trkpt lat="44.59213" lon="2.66023">
        <ele>692.97</ele>
        <time>2023-04-18T11:27:14.532Z</time>
      </trkpt>
      <trkpt lat="44.592" lon="2.66021">
        <ele>694.22</ele>
        <time>2023-04-18T11:27:24.944Z</time>
      </trkpt>
      <trkpt lat="44.59187" lon="2.66019">
        <ele>691.47</ele>
        <time>2023-04-18T11:27:35.392Z</time>
      </trkpt>
      <trkpt lat="44.59175" lon="2.66018">
        <ele>690.23</ele>
        <time>2023-04-18T11:27:46.492Z</time>
      </trkpt>
      <trkpt lat="44.59176" lon="2.66018">
        <ele>689.22</ele>
        <time>2023-04-18T11:27:58.533Z</time>
      </trkpt>
      <trkpt lat="44.59175" lon="2.66017">
        <ele>690.21</ele>
        <time>2023-04-18T11:28:51.403Z</time>
      </trkpt>
      <trkpt lat="44.59162" lon="2.66015">
        <ele>690.22</ele>
        <time>2023-04-18T11:29:01.712Z</time>
      </trkpt>
      <trkpt lat="44.59148" lon="2.66015">
        <ele>689.22</ele>
        <time>2023-04-18T11:29:12.151Z</time>
      </trkpt>
      <trkpt lat="44.59135" lon="2.66012">
        <ele>689.22</ele>
        <time>2023-04-18T11:29:22.611Z</time>
      </trkpt>
      <trkpt lat="44.59123" lon="2.66009">
        <ele>688.22</ele>
        <time>2023-04-18T11:29:33.011Z</time>
      </trkpt>
      <trkpt lat="44.5911" lon="2.66004">
        <ele>688.23</ele>
        <time>2023-04-18T11:29:43.442Z</time>
      </trkpt>
      <trkpt lat="44.59096" lon="2.66001">
        <ele>687.22</ele>
        <time>2023-04-18T11:29:53.912Z</time>
      </trkpt>
      <trkpt lat="44.59083" lon="2.65994">
        <ele>685.22</ele>
        <time>2023-04-18T11:30:04.292Z</time>
      </trkpt>
      <trkpt lat="44.59071" lon="2.65987">
        <ele>684.22</ele>
        <time>2023-04-18T11:30:14.762Z</time>
      </trkpt>
      <trkpt lat="44.59058" lon="2.65986">
        <ele>685.22</ele>
        <time>2023-04-18T11:30:25.303Z</time>
      </trkpt>
      <trkpt lat="44.59045" lon="2.65984">
        <ele>684.22</ele>
        <time>2023-04-18T11:30:35.871Z</time>
      </trkpt>
      <trkpt lat="44.59032" lon="2.65981">
        <ele>683.22</ele>
        <time>2023-04-18T11:30:46.362Z</time>
      </trkpt>
      <trkpt lat="44.59018" lon="2.65978">
        <ele>682.22</ele>
        <time>2023-04-18T11:30:56.883Z</time>
      </trkpt>
      <trkpt lat="44.59005" lon="2.65975">
        <ele>681.22</ele>
        <time>2023-04-18T11:31:07.411Z</time>
      </trkpt>
      <trkpt lat="44.58991" lon="2.65971">
        <ele>680.22</ele>
        <time>2023-04-18T11:31:17.953Z</time>
      </trkpt>
      <trkpt lat="44.58979" lon="2.65968">
        <ele>680.22</ele>
        <time>2023-04-18T11:31:28.372Z</time>
      </trkpt>
      <trkpt lat="44.58966" lon="2.65963">
        <ele>678.22</ele>
        <time>2023-04-18T11:31:38.802Z</time>
      </trkpt>
      <trkpt lat="44.58954" lon="2.65958">
        <ele>677.22</ele>
        <time>2023-04-18T11:31:49.262Z</time>
      </trkpt>
      <trkpt lat="44.58942" lon="2.65955">
        <ele>677.23</ele>
        <time>2023-04-18T11:31:59.742Z</time>
      </trkpt>
      <trkpt lat="44.5893" lon="2.6595">
        <ele>677.22</ele>
        <time>2023-04-18T11:32:10.072Z</time>
      </trkpt>
      <trkpt lat="44.58918" lon="2.65947">
        <ele>676.24</ele>
        <time>2023-04-18T11:32:20.602Z</time>
      </trkpt>
      <trkpt lat="44.58906" lon="2.65942">
        <ele>676.22</ele>
        <time>2023-04-18T11:32:31.091Z</time>
      </trkpt>
      <trkpt lat="44.58895" lon="2.65941">
        <ele>675.22</ele>
        <time>2023-04-18T11:32:41.163Z</time>
      </trkpt>
      <trkpt lat="44.58881" lon="2.65939">
        <ele>673.48</ele>
        <time>2023-04-18T11:32:51.642Z</time>
      </trkpt>
      <trkpt lat="44.58869" lon="2.65939">
        <ele>673.21</ele>
        <time>2023-04-18T11:33:01.923Z</time>
      </trkpt>
      <trkpt lat="44.58858" lon="2.65931">
        <ele>672.23</ele>
        <time>2023-04-18T11:33:12.431Z</time>
      </trkpt>
      <trkpt lat="44.58852" lon="2.65914">
        <ele>670.24</ele>
        <time>2023-04-18T11:33:22.922Z</time>
      </trkpt>
      <trkpt lat="44.58847" lon="2.65897">
        <ele>669.23</ele>
        <time>2023-04-18T11:33:33.331Z</time>
      </trkpt>
      <trkpt lat="44.58841" lon="2.65892">
        <ele>667.24</ele>
        <time>2023-04-18T11:33:43.832Z</time>
      </trkpt>
      <trkpt lat="44.58834" lon="2.65874">
        <ele>666.23</ele>
        <time>2023-04-18T11:33:54.273Z</time>
      </trkpt>
      <trkpt lat="44.58828" lon="2.65859">
        <ele>665.23</ele>
        <time>2023-04-18T11:34:04.821Z</time>
      </trkpt>
      <trkpt lat="44.58823" lon="2.65847">
        <ele>665.23</ele>
        <time>2023-04-18T11:34:15.333Z</time>
      </trkpt>
      <trkpt lat="44.58816" lon="2.65834">
        <ele>663.23</ele>
        <time>2023-04-18T11:34:25.594Z</time>
      </trkpt>
      <trkpt lat="44.58809" lon="2.65819">
        <ele>663.23</ele>
        <time>2023-04-18T11:34:35.632Z</time>
      </trkpt>
      <trkpt lat="44.58803" lon="2.65802">
        <ele>662.23</ele>
        <time>2023-04-18T11:34:45.831Z</time>
      </trkpt>
      <trkpt lat="44.58795" lon="2.65786">
        <ele>662.23</ele>
        <time>2023-04-18T11:34:56.031Z</time>
      </trkpt>
      <trkpt lat="44.58787" lon="2.65771">
        <ele>662.23</ele>
        <time>2023-04-18T11:35:06.202Z</time>
      </trkpt>
      <trkpt lat="44.58779" lon="2.65757">
        <ele>661.23</ele>
        <time>2023-04-18T11:35:16.642Z</time>
      </trkpt>
      <trkpt lat="44.5877" lon="2.65748">
        <ele>661.23</ele>
        <time>2023-04-18T11:35:27.152Z</time>
      </trkpt>
      <trkpt lat="44.58768" lon="2.65748">
        <ele>661.98</ele>
        <time>2023-04-18T11:35:37.642Z</time>
      </trkpt>
      <trkpt lat="44.58757" lon="2.6574">
        <ele>664.17</ele>
        <time>2023-04-18T11:35:48.131Z</time>
      </trkpt>
      <trkpt lat="44.58746" lon="2.65735">
        <ele>664.23</ele>
        <time>2023-04-18T11:35:58.541Z</time>
      </trkpt>
      <trkpt lat="44.58737" lon="2.65731">
        <ele>664.29</ele>
        <time>2023-04-18T11:36:08.942Z</time>
      </trkpt>
      <trkpt lat="44.58731" lon="2.65729">
        <ele>663.23</ele>
        <time>2023-04-18T11:36:19.343Z</time>
      </trkpt>
      <trkpt lat="44.58719" lon="2.65723">
        <ele>662.48</ele>
        <time>2023-04-18T11:36:29.812Z</time>
      </trkpt>
      <trkpt lat="44.58706" lon="2.65716">
        <ele>662.29</ele>
        <time>2023-04-18T11:36:40.163Z</time>
      </trkpt>
      <trkpt lat="44.58693" lon="2.65709">
        <ele>662.23</ele>
        <time>2023-04-18T11:36:50.412Z</time>
      </trkpt>
      <trkpt lat="44.5868" lon="2.65702">
        <ele>661.23</ele>
        <time>2023-04-18T11:37:00.942Z</time>
      </trkpt>
      <trkpt lat="44.58667" lon="2.65696">
        <ele>661.48</ele>
        <time>2023-04-18T11:37:11.272Z</time>
      </trkpt>
      <trkpt lat="44.58655" lon="2.65693">
        <ele>662.25</ele>
        <time>2023-04-18T11:37:21.587Z</time>
      </trkpt>
      <trkpt lat="44.5864" lon="2.6569">
        <ele>661.23</ele>
        <time>2023-04-18T11:37:32.063Z</time>
      </trkpt>
      <trkpt lat="44.58628" lon="2.65696">
        <ele>661.23</ele>
        <time>2023-04-18T11:37:42.131Z</time>
      </trkpt>
      <trkpt lat="44.58616" lon="2.65696">
        <ele>661.23</ele>
        <time>2023-04-18T11:37:52.382Z</time>
      </trkpt>
      <trkpt lat="44.58605" lon="2.65689">
        <ele>663.98</ele>
        <time>2023-04-18T11:38:02.871Z</time>
      </trkpt>
      <trkpt lat="44.58601" lon="2.65674">
        <ele>664.23</ele>
        <time>2023-04-18T11:38:13.344Z</time>
      </trkpt>
      <trkpt lat="44.58597" lon="2.65656">
        <ele>664.98</ele>
        <time>2023-04-18T11:38:23.711Z</time>
      </trkpt>
      <trkpt lat="44.58594" lon="2.6564">
        <ele>665.23</ele>
        <time>2023-04-18T11:38:33.762Z</time>
      </trkpt>
      <trkpt lat="44.58587" lon="2.6563">
        <ele>666.23</ele>
        <time>2023-04-18T11:38:44.132Z</time>
      </trkpt>
      <trkpt lat="44.58586" lon="2.65634">
        <ele>666.23</ele>
        <time>2023-04-18T11:38:54.596Z</time>
      </trkpt>
      <trkpt lat="44.58575" lon="2.65642">
        <ele>664.24</ele>
        <time>2023-04-18T11:39:05.084Z</time>
      </trkpt>
      <trkpt lat="44.58565" lon="2.65654">
        <ele>665.23</ele>
        <time>2023-04-18T11:39:15.403Z</time>
      </trkpt>
      <trkpt lat="44.58556" lon="2.65669">
        <ele>666.17</ele>
        <time>2023-04-18T11:39:25.914Z</time>
      </trkpt>
      <trkpt lat="44.58548" lon="2.65683">
        <ele>664.23</ele>
        <time>2023-04-18T11:39:36.333Z</time>
      </trkpt>
      <trkpt lat="44.58539" lon="2.65697">
        <ele>663.23</ele>
        <time>2023-04-18T11:39:46.731Z</time>
      </trkpt>
      <trkpt lat="44.58531" lon="2.65711">
        <ele>663.23</ele>
        <time>2023-04-18T11:39:57.142Z</time>
      </trkpt>
      <trkpt lat="44.58523" lon="2.65724">
        <ele>662.23</ele>
        <time>2023-04-18T11:40:07.632Z</time>
      </trkpt>
      <trkpt lat="44.58516" lon="2.65738">
        <ele>661.23</ele>
        <time>2023-04-18T11:40:18.062Z</time>
      </trkpt>
      <trkpt lat="44.58508" lon="2.65751">
        <ele>660.23</ele>
        <time>2023-04-18T11:40:28.502Z</time>
      </trkpt>
      <trkpt lat="44.58501" lon="2.65763">
        <ele>660.23</ele>
        <time>2023-04-18T11:40:38.913Z</time>
      </trkpt>
      <trkpt lat="44.58493" lon="2.65778">
        <ele>659.23</ele>
        <time>2023-04-18T11:40:48.922Z</time>
      </trkpt>
      <trkpt lat="44.58484" lon="2.6579">
        <ele>658.23</ele>
        <time>2023-04-18T11:40:59.312Z</time>
      </trkpt>
      <trkpt lat="44.58477" lon="2.65803">
        <ele>657.23</ele>
        <time>2023-04-18T11:41:09.641Z</time>
      </trkpt>
      <trkpt lat="44.58468" lon="2.65815">
        <ele>657.23</ele>
        <time>2023-04-18T11:41:20.282Z</time>
      </trkpt>
      <trkpt lat="44.58462" lon="2.65821">
        <ele>657.23</ele>
        <time>2023-04-18T11:41:30.731Z</time>
      </trkpt>
      <trkpt lat="44.58452" lon="2.65832">
        <ele>656.23</ele>
        <time>2023-04-18T11:41:40.832Z</time>
      </trkpt>
      <trkpt lat="44.58446" lon="2.65844">
        <ele>655.23</ele>
        <time>2023-04-18T11:41:51.213Z</time>
      </trkpt>
      <trkpt lat="44.58438" lon="2.65853">
        <ele>654.23</ele>
        <time>2023-04-18T11:42:01.642Z</time>
      </trkpt>
      <trkpt lat="44.58428" lon="2.65849">
        <ele>652.48</ele>
        <time>2023-04-18T11:42:12.002Z</time>
      </trkpt>
      <trkpt lat="44.5842" lon="2.6584">
        <ele>652.22</ele>
        <time>2023-04-18T11:42:22.571Z</time>
      </trkpt>
      <trkpt lat="44.58411" lon="2.65837">
        <ele>654.17</ele>
        <time>2023-04-18T11:42:33.094Z</time>
      </trkpt>
      <trkpt lat="44.58402" lon="2.65841">
        <ele>654.23</ele>
        <time>2023-04-18T11:42:43.574Z</time>
      </trkpt>
      <trkpt lat="44.5839" lon="2.65845">
        <ele>655.23</ele>
        <time>2023-04-18T11:42:53.923Z</time>
      </trkpt>
      <trkpt lat="44.58379" lon="2.65847">
        <ele>655.23</ele>
        <time>2023-04-18T11:43:04.002Z</time>
      </trkpt>
      <trkpt lat="44.58364" lon="2.65849">
        <ele>654.23</ele>
        <time>2023-04-18T11:43:14.500Z</time>
      </trkpt>
      <trkpt lat="44.5835" lon="2.65854">
        <ele>653.23</ele>
        <time>2023-04-18T11:43:24.902Z</time>
      </trkpt>
      <trkpt lat="44.58338" lon="2.65857">
        <ele>651.23</ele>
        <time>2023-04-18T11:43:34.902Z</time>
      </trkpt>
      <trkpt lat="44.58326" lon="2.65861">
        <ele>649.29</ele>
        <time>2023-04-18T11:43:45.383Z</time>
      </trkpt>
      <trkpt lat="44.58315" lon="2.65867">
        <ele>649.23</ele>
        <time>2023-04-18T11:43:55.482Z</time>
      </trkpt>
      <trkpt lat="44.58301" lon="2.65876">
        <ele>645.29</ele>
        <time>2023-04-18T11:44:06.333Z</time>
      </trkpt>
      <trkpt lat="44.58289" lon="2.65885">
        <ele>642.23</ele>
        <time>2023-04-18T11:44:16.840Z</time>
      </trkpt>
      <trkpt lat="44.58279" lon="2.65897">
        <ele>641.23</ele>
        <time>2023-04-18T11:44:27.094Z</time>
      </trkpt>
      <trkpt lat="44.58267" lon="2.65907">
        <ele>640.23</ele>
        <time>2023-04-18T11:44:37.597Z</time>
      </trkpt>
      <trkpt lat="44.58257" lon="2.65917">
        <ele>638.23</ele>
        <time>2023-04-18T11:44:47.882Z</time>
      </trkpt>
      <trkpt lat="44.58245" lon="2.65925">
        <ele>639.23</ele>
        <time>2023-04-18T11:44:58.173Z</time>
      </trkpt>
      <trkpt lat="44.58235" lon="2.65934">
        <ele>638.23</ele>
        <time>2023-04-18T11:45:08.322Z</time>
      </trkpt>
      <trkpt lat="44.58223" lon="2.65941">
        <ele>636.48</ele>
        <time>2023-04-18T11:45:18.741Z</time>
      </trkpt>
      <trkpt lat="44.58213" lon="2.65941">
        <ele>637.21</ele>
        <time>2023-04-18T11:45:29.212Z</time>
      </trkpt>
      <trkpt lat="44.58208" lon="2.65934">
        <ele>638.23</ele>
        <time>2023-04-18T11:45:39.232Z</time>
      </trkpt>
      <trkpt lat="44.58201" lon="2.65926">
        <ele>637.98</ele>
        <time>2023-04-18T11:45:49.682Z</time>
      </trkpt>
      <trkpt lat="44.58195" lon="2.65918">
        <ele>637.48</ele>
        <time>2023-04-18T11:46:00.112Z</time>
      </trkpt>
      <trkpt lat="44.58186" lon="2.65905">
        <ele>636.23</ele>
        <time>2023-04-18T11:46:10.582Z</time>
      </trkpt>
      <trkpt lat="44.58178" lon="2.65892">
        <ele>635.23</ele>
        <time>2023-04-18T11:46:20.901Z</time>
      </trkpt>
      <trkpt lat="44.58171" lon="2.65881">
        <ele>633.24</ele>
        <time>2023-04-18T11:46:31.342Z</time>
      </trkpt>
      <trkpt lat="44.5816" lon="2.65871">
        <ele>629.24</ele>
        <time>2023-04-18T11:46:41.912Z</time>
      </trkpt>
      <trkpt lat="44.58151" lon="2.65857">
        <ele>627.23</ele>
        <time>2023-04-18T11:46:52.292Z</time>
      </trkpt>
      <trkpt lat="44.58143" lon="2.65846">
        <ele>626.23</ele>
        <time>2023-04-18T11:47:02.322Z</time>
      </trkpt>
      <trkpt lat="44.58135" lon="2.65836">
        <ele>626.23</ele>
        <time>2023-04-18T11:47:12.802Z</time>
      </trkpt>
      <trkpt lat="44.58125" lon="2.65828">
        <ele>624.23</ele>
        <time>2023-04-18T11:47:23.351Z</time>
      </trkpt>
      <trkpt lat="44.58116" lon="2.65821">
        <ele>623.23</ele>
        <time>2023-04-18T11:47:33.832Z</time>
      </trkpt>
      <trkpt lat="44.58107" lon="2.65814">
        <ele>622.23</ele>
        <time>2023-04-18T11:47:44.411Z</time>
      </trkpt>
      <trkpt lat="44.58097" lon="2.65806">
        <ele>621.23</ele>
        <time>2023-04-18T11:47:54.872Z</time>
      </trkpt>
      <trkpt lat="44.58089" lon="2.65799">
        <ele>617.25</ele>
        <time>2023-04-18T11:48:05.282Z</time>
      </trkpt>
      <trkpt lat="44.58078" lon="2.65793">
        <ele>616.29</ele>
        <time>2023-04-18T11:48:15.282Z</time>
      </trkpt>
      <trkpt lat="44.58068" lon="2.65786">
        <ele>614.23</ele>
        <time>2023-04-18T11:48:25.682Z</time>
      </trkpt>
      <trkpt lat="44.58058" lon="2.65778">
        <ele>613.54</ele>
        <time>2023-04-18T11:48:36.125Z</time>
      </trkpt>
      <trkpt lat="44.58046" lon="2.65774">
        <ele>612.17</ele>
        <time>2023-04-18T11:48:46.451Z</time>
      </trkpt>
      <trkpt lat="44.58034" lon="2.6577">
        <ele>610.23</ele>
        <time>2023-04-18T11:48:56.492Z</time>
      </trkpt>
      <trkpt lat="44.58023" lon="2.65766">
        <ele>609.25</ele>
        <time>2023-04-18T11:49:06.992Z</time>
      </trkpt>
      <trkpt lat="44.58011" lon="2.65763">
        <ele>608.23</ele>
        <time>2023-04-18T11:49:17.461Z</time>
      </trkpt>
      <trkpt lat="44.58003" lon="2.65761">
        <ele>607.23</ele>
        <time>2023-04-18T11:49:27.471Z</time>
      </trkpt>
      <trkpt lat="44.57996" lon="2.6576">
        <ele>605.24</ele>
        <time>2023-04-18T11:49:37.521Z</time>
      </trkpt>
      <trkpt lat="44.57979" lon="2.65753">
        <ele>602.48</ele>
        <time>2023-04-18T11:49:48.041Z</time>
      </trkpt>
      <trkpt lat="44.57971" lon="2.65743">
        <ele>599.23</ele>
        <time>2023-04-18T11:49:58.314Z</time>
      </trkpt>
      <trkpt lat="44.57966" lon="2.65731">
        <ele>596.48</ele>
        <time>2023-04-18T11:50:08.322Z</time>
      </trkpt>
      <trkpt lat="44.57965" lon="2.65728">
        <ele>596.23</ele>
        <time>2023-04-18T11:50:18.682Z</time>
      </trkpt>
      <trkpt lat="44.57965" lon="2.65727">
        <ele>594.23</ele>
        <time>2023-04-18T11:50:33.181Z</time>
      </trkpt>
      <trkpt lat="44.57964" lon="2.65726">
        <ele>591.3</ele>
        <time>2023-04-18T11:51:06.332Z</time>
      </trkpt>
      <trkpt lat="44.57965" lon="2.65726">
        <ele>591.23</ele>
        <time>2023-04-18T11:51:17.342Z</time>
      </trkpt>
      <trkpt lat="44.57964" lon="2.65726">
        <ele>594.15</ele>
        <time>2023-04-18T11:55:13.191Z</time>
      </trkpt>
      <trkpt lat="44.57963" lon="2.65722">
        <ele>594.23</ele>
        <time>2023-04-18T11:55:23.532Z</time>
      </trkpt>
      <trkpt lat="44.57963" lon="2.65719">
        <ele>593.23</ele>
        <time>2023-04-18T11:55:33.820Z</time>
      </trkpt>
      <trkpt lat="44.57964" lon="2.65705">
        <ele>592.23</ele>
        <time>2023-04-18T11:55:44.373Z</time>
      </trkpt>
      <trkpt lat="44.57963" lon="2.65704">
        <ele>591.23</ele>
        <time>2023-04-18T11:56:00.355Z</time>
      </trkpt>
      <trkpt lat="44.57964" lon="2.65696">
        <ele>591.23</ele>
        <time>2023-04-18T11:56:10.671Z</time>
      </trkpt>
      <trkpt lat="44.5797" lon="2.65683">
        <ele>590.23</ele>
        <time>2023-04-18T11:56:21.071Z</time>
      </trkpt>
      <trkpt lat="44.57974" lon="2.6567">
        <ele>590.23</ele>
        <time>2023-04-18T11:56:31.352Z</time>
      </trkpt>
      <trkpt lat="44.57979" lon="2.6566">
        <ele>589.23</ele>
        <time>2023-04-18T11:56:41.842Z</time>
      </trkpt>
      <trkpt lat="44.57986" lon="2.65646">
        <ele>587.23</ele>
        <time>2023-04-18T11:56:52.193Z</time>
      </trkpt>
      <trkpt lat="44.57995" lon="2.65633">
        <ele>587.23</ele>
        <time>2023-04-18T11:57:02.611Z</time>
      </trkpt>
      <trkpt lat="44.58006" lon="2.65621">
        <ele>585.22</ele>
        <time>2023-04-18T11:57:12.681Z</time>
      </trkpt>
      <trkpt lat="44.58017" lon="2.65611">
        <ele>585.23</ele>
        <time>2023-04-18T11:57:23.184Z</time>
      </trkpt>
      <trkpt lat="44.58028" lon="2.65601">
        <ele>584.25</ele>
        <time>2023-04-18T11:57:33.632Z</time>
      </trkpt>
      <trkpt lat="44.58039" lon="2.65592">
        <ele>584.23</ele>
        <time>2023-04-18T11:57:44.563Z</time>
      </trkpt>
      <trkpt lat="44.58051" lon="2.65585">
        <ele>582.49</ele>
        <time>2023-04-18T11:57:54.651Z</time>
      </trkpt>
      <trkpt lat="44.58062" lon="2.65584">
        <ele>580.23</ele>
        <time>2023-04-18T11:58:04.681Z</time>
      </trkpt>
      <trkpt lat="44.58075" lon="2.65584">
        <ele>581.23</ele>
        <time>2023-04-18T11:58:15.172Z</time>
      </trkpt>
      <trkpt lat="44.58088" lon="2.65584">
        <ele>581.23</ele>
        <time>2023-04-18T11:58:25.592Z</time>
      </trkpt>
      <trkpt lat="44.581" lon="2.65588">
        <ele>582.23</ele>
        <time>2023-04-18T11:58:36.532Z</time>
      </trkpt>
      <trkpt lat="44.58112" lon="2.65592">
        <ele>583.23</ele>
        <time>2023-04-18T11:58:46.591Z</time>
      </trkpt>
      <trkpt lat="44.58123" lon="2.656">
        <ele>584.23</ele>
        <time>2023-04-18T11:58:56.992Z</time>
      </trkpt>
      <trkpt lat="44.58132" lon="2.65605">
        <ele>586.24</ele>
        <time>2023-04-18T11:59:07.492Z</time>
      </trkpt>
      <trkpt lat="44.58134" lon="2.65606">
        <ele>586.23</ele>
        <time>2023-04-18T11:59:18.451Z</time>
      </trkpt>
      <trkpt lat="44.58135" lon="2.65605">
        <ele>586.23</ele>
        <time>2023-04-18T11:59:34.599Z</time>
      </trkpt>
      <trkpt lat="44.58137" lon="2.65595">
        <ele>587.23</ele>
        <time>2023-04-18T11:59:44.822Z</time>
      </trkpt>
      <trkpt lat="44.58138" lon="2.65585">
        <ele>587.23</ele>
        <time>2023-04-18T11:59:55.223Z</time>
      </trkpt>
      <trkpt lat="44.58137" lon="2.65569">
        <ele>584.23</ele>
        <time>2023-04-18T12:00:05.271Z</time>
      </trkpt>
      <trkpt lat="44.58136" lon="2.65555">
        <ele>582.48</ele>
        <time>2023-04-18T12:00:15.682Z</time>
      </trkpt>
      <trkpt lat="44.58137" lon="2.65541">
        <ele>583.18</ele>
        <time>2023-04-18T12:00:26.083Z</time>
      </trkpt>
      <trkpt lat="44.58135" lon="2.65522">
        <ele>582.24</ele>
        <time>2023-04-18T12:00:36.492Z</time>
      </trkpt>
      <trkpt lat="44.58133" lon="2.65502">
        <ele>581.24</ele>
        <time>2023-04-18T12:00:46.912Z</time>
      </trkpt>
      <trkpt lat="44.58127" lon="2.65485">
        <ele>579.24</ele>
        <time>2023-04-18T12:00:57.597Z</time>
      </trkpt>
      <trkpt lat="44.5812" lon="2.65471">
        <ele>577.24</ele>
        <time>2023-04-18T12:01:08.603Z</time>
      </trkpt>
      <trkpt lat="44.58116" lon="2.65457">
        <ele>577.49</ele>
        <time>2023-04-18T12:01:19.589Z</time>
      </trkpt>
      <trkpt lat="44.58111" lon="2.65442">
        <ele>576.24</ele>
        <time>2023-04-18T12:01:29.598Z</time>
      </trkpt>
      <trkpt lat="44.58105" lon="2.6543">
        <ele>576.24</ele>
        <time>2023-04-18T12:01:40.603Z</time>
      </trkpt>
      <trkpt lat="44.58099" lon="2.65415">
        <ele>576.05</ele>
        <time>2023-04-18T12:01:51.597Z</time>
      </trkpt>
      <trkpt lat="44.58096" lon="2.65406">
        <ele>574.3</ele>
        <time>2023-04-18T12:02:01.598Z</time>
      </trkpt>
      <trkpt lat="44.5809" lon="2.65395">
        <ele>573.24</ele>
        <time>2023-04-18T12:02:11.601Z</time>
      </trkpt>
      <trkpt lat="44.58083" lon="2.65381">
        <ele>571.29</ele>
        <time>2023-04-18T12:02:22.591Z</time>
      </trkpt>
      <trkpt lat="44.58078" lon="2.65367">
        <ele>571.24</ele>
        <time>2023-04-18T12:02:32.591Z</time>
      </trkpt>
      <trkpt lat="44.58072" lon="2.65348">
        <ele>566.49</ele>
        <time>2023-04-18T12:02:42.597Z</time>
      </trkpt>
      <trkpt lat="44.58064" lon="2.65334">
        <ele>561.99</ele>
        <time>2023-04-18T12:02:53.601Z</time>
      </trkpt>
      <trkpt lat="44.58059" lon="2.65322">
        <ele>562.99</ele>
        <time>2023-04-18T12:03:04.600Z</time>
      </trkpt>
      <trkpt lat="44.58053" lon="2.6531">
        <ele>562.99</ele>
        <time>2023-04-18T12:03:14.604Z</time>
      </trkpt>
      <trkpt lat="44.58046" lon="2.65295">
        <ele>561.24</ele>
        <time>2023-04-18T12:03:25.600Z</time>
      </trkpt>
      <trkpt lat="44.58041" lon="2.65282">
        <ele>561.05</ele>
        <time>2023-04-18T12:03:35.601Z</time>
      </trkpt>
      <trkpt lat="44.58037" lon="2.65273">
        <ele>560.47</ele>
        <time>2023-04-18T12:03:45.607Z</time>
      </trkpt>
      <trkpt lat="44.58034" lon="2.65263">
        <ele>559.24</ele>
        <time>2023-04-18T12:03:56.599Z</time>
      </trkpt>
      <trkpt lat="44.58027" lon="2.65252">
        <ele>557.49</ele>
        <time>2023-04-18T12:04:07.596Z</time>
      </trkpt>
      <trkpt lat="44.5802" lon="2.65243">
        <ele>556.26</ele>
        <time>2023-04-18T12:04:17.599Z</time>
      </trkpt>
      <trkpt lat="44.58016" lon="2.65229">
        <ele>553.5</ele>
        <time>2023-04-18T12:04:27.602Z</time>
      </trkpt>
      <trkpt lat="44.58009" lon="2.65216">
        <ele>549.25</ele>
        <time>2023-04-18T12:04:38.600Z</time>
      </trkpt>
      <trkpt lat="44.58006" lon="2.65199">
        <ele>544.25</ele>
        <time>2023-04-18T12:04:48.601Z</time>
      </trkpt>
      <trkpt lat="44.58003" lon="2.65186">
        <ele>543.49</ele>
        <time>2023-04-18T12:04:59.597Z</time>
      </trkpt>
      <trkpt lat="44.58006" lon="2.65172">
        <ele>543.3</ele>
        <time>2023-04-18T12:05:09.600Z</time>
      </trkpt>
      <trkpt lat="44.58011" lon="2.65161">
        <ele>546</ele>
        <time>2023-04-18T12:05:19.605Z</time>
      </trkpt>
      <trkpt lat="44.58018" lon="2.65146">
        <ele>545.24</ele>
        <time>2023-04-18T12:05:30.594Z</time>
      </trkpt>
      <trkpt lat="44.58026" lon="2.65132">
        <ele>545.24</ele>
        <time>2023-04-18T12:05:41.592Z</time>
      </trkpt>
      <trkpt lat="44.58034" lon="2.65122">
        <ele>547.99</ele>
        <time>2023-04-18T12:05:51.600Z</time>
      </trkpt>
      <trkpt lat="44.58044" lon="2.65113">
        <ele>547</ele>
        <time>2023-04-18T12:06:02.593Z</time>
      </trkpt>
      <trkpt lat="44.58053" lon="2.65104">
        <ele>545.51</ele>
        <time>2023-04-18T12:06:12.598Z</time>
      </trkpt>
      <trkpt lat="44.58062" lon="2.651">
        <ele>544.48</ele>
        <time>2023-04-18T12:06:22.604Z</time>
      </trkpt>
      <trkpt lat="44.5807" lon="2.65094">
        <ele>545.23</ele>
        <time>2023-04-18T12:06:33.597Z</time>
      </trkpt>
      <trkpt lat="44.58079" lon="2.65083">
        <ele>548.21</ele>
        <time>2023-04-18T12:06:43.606Z</time>
      </trkpt>
      <trkpt lat="44.58085" lon="2.65074">
        <ele>551.23</ele>
        <time>2023-04-18T12:06:54.603Z</time>
      </trkpt>
      <trkpt lat="44.58089" lon="2.65065">
        <ele>551.31</ele>
        <time>2023-04-18T12:07:05.594Z</time>
      </trkpt>
      <trkpt lat="44.58092" lon="2.65055">
        <ele>551.25</ele>
        <time>2023-04-18T12:07:15.600Z</time>
      </trkpt>
      <trkpt lat="44.58097" lon="2.65039">
        <ele>548.26</ele>
        <time>2023-04-18T12:07:25.605Z</time>
      </trkpt>
      <trkpt lat="44.58103" lon="2.65028">
        <ele>547.25</ele>
        <time>2023-04-18T12:07:36.609Z</time>
      </trkpt>
      <trkpt lat="44.58109" lon="2.65021">
        <ele>546.5</ele>
        <time>2023-04-18T12:07:47.597Z</time>
      </trkpt>
      <trkpt lat="44.5811" lon="2.6502">
        <ele>546.25</ele>
        <time>2023-04-18T12:07:58.587Z</time>
      </trkpt>
      <trkpt lat="44.58111" lon="2.65017">
        <ele>544.25</ele>
        <time>2023-04-18T12:08:08.593Z</time>
      </trkpt>
      <trkpt lat="44.58112" lon="2.65016">
        <ele>546.87</ele>
        <time>2023-04-18T12:08:26.596Z</time>
      </trkpt>
      <trkpt lat="44.58113" lon="2.65015">
        <ele>548.18</ele>
        <time>2023-04-18T12:08:57.574Z</time>
      </trkpt>
      <trkpt lat="44.58114" lon="2.65014">
        <ele>548.25</ele>
        <time>2023-04-18T12:09:30.574Z</time>
      </trkpt>
      <trkpt lat="44.58117" lon="2.65006">
        <ele>550.24</ele>
        <time>2023-04-18T12:09:40.594Z</time>
      </trkpt>
      <trkpt lat="44.58121" lon="2.64998">
        <ele>551.01</ele>
        <time>2023-04-18T12:09:50.601Z</time>
      </trkpt>
      <trkpt lat="44.58127" lon="2.64987">
        <ele>550.25</ele>
        <time>2023-04-18T12:10:01.577Z</time>
      </trkpt>
      <trkpt lat="44.58133" lon="2.64977">
        <ele>551.23</ele>
        <time>2023-04-18T12:10:11.586Z</time>
      </trkpt>
      <trkpt lat="44.58143" lon="2.64958">
        <ele>550.26</ele>
        <time>2023-04-18T12:10:21.596Z</time>
      </trkpt>
      <trkpt lat="44.58154" lon="2.64945">
        <ele>549.25</ele>
        <time>2023-04-18T12:10:32.594Z</time>
      </trkpt>
      <trkpt lat="44.58164" lon="2.64937">
        <ele>547.31</ele>
        <time>2023-04-18T12:10:43.590Z</time>
      </trkpt>
      <trkpt lat="44.58172" lon="2.64932">
        <ele>548</ele>
        <time>2023-04-18T12:10:53.590Z</time>
      </trkpt>
      <trkpt lat="44.58182" lon="2.64929">
        <ele>548.31</ele>
        <time>2023-04-18T12:11:03.596Z</time>
      </trkpt>
      <trkpt lat="44.58192" lon="2.64924">
        <ele>550.25</ele>
        <time>2023-04-18T12:11:14.594Z</time>
      </trkpt>
      <trkpt lat="44.58201" lon="2.64925">
        <ele>552.25</ele>
        <time>2023-04-18T12:11:24.597Z</time>
      </trkpt>
      <trkpt lat="44.58212" lon="2.64925">
        <ele>555.18</ele>
        <time>2023-04-18T12:11:34.605Z</time>
      </trkpt>
      <trkpt lat="44.58223" lon="2.64927">
        <ele>554.31</ele>
        <time>2023-04-18T12:11:45.598Z</time>
      </trkpt>
      <trkpt lat="44.58225" lon="2.64927">
        <ele>555.25</ele>
        <time>2023-04-18T12:11:55.600Z</time>
      </trkpt>
      <trkpt lat="44.58225" lon="2.64921">
        <ele>556.23</ele>
        <time>2023-04-18T12:12:05.601Z</time>
      </trkpt>
      <trkpt lat="44.58223" lon="2.64907">
        <ele>554.25</ele>
        <time>2023-04-18T12:12:16.600Z</time>
      </trkpt>
      <trkpt lat="44.58222" lon="2.64887">
        <ele>552.26</ele>
        <time>2023-04-18T12:12:27.592Z</time>
      </trkpt>
      <trkpt lat="44.5822" lon="2.64868">
        <ele>552</ele>
        <time>2023-04-18T12:12:38.597Z</time>
      </trkpt>
      <trkpt lat="44.58224" lon="2.64852">
        <ele>554.24</ele>
        <time>2023-04-18T12:12:48.607Z</time>
      </trkpt>
      <trkpt lat="44.58228" lon="2.64836">
        <ele>556.31</ele>
        <time>2023-04-18T12:12:59.603Z</time>
      </trkpt>
      <trkpt lat="44.58236" lon="2.64821">
        <ele>557.25</ele>
        <time>2023-04-18T12:13:10.602Z</time>
      </trkpt>
      <trkpt lat="44.58243" lon="2.64809">
        <ele>558.19</ele>
        <time>2023-04-18T12:13:21.590Z</time>
      </trkpt>
      <trkpt lat="44.5825" lon="2.64795">
        <ele>560</ele>
        <time>2023-04-18T12:13:31.602Z</time>
      </trkpt>
      <trkpt lat="44.58257" lon="2.64779">
        <ele>560.23</ele>
        <time>2023-04-18T12:13:42.600Z</time>
      </trkpt>
      <trkpt lat="44.58264" lon="2.64761">
        <ele>559.5</ele>
        <time>2023-04-18T12:13:53.590Z</time>
      </trkpt>
      <trkpt lat="44.58268" lon="2.64745">
        <ele>558.25</ele>
        <time>2023-04-18T12:14:03.591Z</time>
      </trkpt>
      <trkpt lat="44.58275" lon="2.64732">
        <ele>558.25</ele>
        <time>2023-04-18T12:14:14.137Z</time>
      </trkpt>
      <trkpt lat="44.58276" lon="2.64715">
        <ele>558.25</ele>
        <time>2023-04-18T12:14:24.167Z</time>
      </trkpt>
      <trkpt lat="44.58272" lon="2.64706">
        <ele>559</ele>
        <time>2023-04-18T12:14:34.688Z</time>
      </trkpt>
      <trkpt lat="44.58266" lon="2.64707">
        <ele>561.25</ele>
        <time>2023-04-18T12:14:45.092Z</time>
      </trkpt>
      <trkpt lat="44.58254" lon="2.64703">
        <ele>561.27</ele>
        <time>2023-04-18T12:14:55.572Z</time>
      </trkpt>
      <trkpt lat="44.58243" lon="2.64697">
        <ele>563.24</ele>
        <time>2023-04-18T12:15:06.071Z</time>
      </trkpt>
      <trkpt lat="44.58235" lon="2.64694">
        <ele>567.19</ele>
        <time>2023-04-18T12:15:16.437Z</time>
      </trkpt>
      <trkpt lat="44.58224" lon="2.64691">
        <ele>565.24</ele>
        <time>2023-04-18T12:15:27.412Z</time>
      </trkpt>
      <trkpt lat="44.58211" lon="2.64689">
        <ele>566.26</ele>
        <time>2023-04-18T12:15:37.589Z</time>
      </trkpt>
      <trkpt lat="44.58201" lon="2.64687">
        <ele>567.5</ele>
        <time>2023-04-18T12:15:47.591Z</time>
      </trkpt>
      <trkpt lat="44.58191" lon="2.64686">
        <ele>567.25</ele>
        <time>2023-04-18T12:15:57.592Z</time>
      </trkpt>
      <trkpt lat="44.58179" lon="2.64684">
        <ele>565.32</ele>
        <time>2023-04-18T12:16:07.594Z</time>
      </trkpt>
      <trkpt lat="44.58165" lon="2.64685">
        <ele>566.06</ele>
        <time>2023-04-18T12:16:18.591Z</time>
      </trkpt>
      <trkpt lat="44.58154" lon="2.64684">
        <ele>567.49</ele>
        <time>2023-04-18T12:16:28.600Z</time>
      </trkpt>
      <trkpt lat="44.58143" lon="2.64674">
        <ele>563.56</ele>
        <time>2023-04-18T12:16:39.594Z</time>
      </trkpt>
      <trkpt lat="44.58142" lon="2.64669">
        <ele>563.25</ele>
        <time>2023-04-18T12:16:49.596Z</time>
      </trkpt>
      <trkpt lat="44.58142" lon="2.64667">
        <ele>562.25</ele>
        <time>2023-04-18T12:16:59.597Z</time>
      </trkpt>
      <trkpt lat="44.5814" lon="2.64668">
        <ele>561.31</ele>
        <time>2023-04-18T12:17:09.599Z</time>
      </trkpt>
      <trkpt lat="44.58133" lon="2.64674">
        <ele>560.19</ele>
        <time>2023-04-18T12:17:20.573Z</time>
      </trkpt>
      <trkpt lat="44.58127" lon="2.64675">
        <ele>561.26</ele>
        <time>2023-04-18T12:17:30.595Z</time>
      </trkpt>
      <trkpt lat="44.58117" lon="2.64674">
        <ele>563.25</ele>
        <time>2023-04-18T12:17:40.596Z</time>
      </trkpt>
      <trkpt lat="44.58108" lon="2.64665">
        <ele>560.51</ele>
        <time>2023-04-18T12:17:51.599Z</time>
      </trkpt>
      <trkpt lat="44.58104" lon="2.64653">
        <ele>558.25</ele>
        <time>2023-04-18T12:18:02.082Z</time>
      </trkpt>
      <trkpt lat="44.58099" lon="2.64646">
        <ele>558.25</ele>
        <time>2023-04-18T12:18:12.563Z</time>
      </trkpt>
      <trkpt lat="44.58098" lon="2.64639">
        <ele>560.19</ele>
        <time>2023-04-18T12:18:23.599Z</time>
      </trkpt>
      <trkpt lat="44.58094" lon="2.64631">
        <ele>561.25</ele>
        <time>2023-04-18T12:18:33.924Z</time>
      </trkpt>
      <trkpt lat="44.5809" lon="2.64623">
        <ele>565.25</ele>
        <time>2023-04-18T12:18:44.402Z</time>
      </trkpt>
      <trkpt lat="44.5809" lon="2.64613">
        <ele>570.19</ele>
        <time>2023-04-18T12:18:54.951Z</time>
      </trkpt>
      <trkpt lat="44.5809" lon="2.6461">
        <ele>571.99</ele>
        <time>2023-04-18T12:19:05.462Z</time>
      </trkpt>
      <trkpt lat="44.58092" lon="2.64601">
        <ele>573.25</ele>
        <time>2023-04-18T12:19:15.702Z</time>
      </trkpt>
      <trkpt lat="44.58093" lon="2.64594">
        <ele>576.25</ele>
        <time>2023-04-18T12:19:26.632Z</time>
      </trkpt>
      <trkpt lat="44.58094" lon="2.64587">
        <ele>579.24</ele>
        <time>2023-04-18T12:19:37.162Z</time>
      </trkpt>
      <trkpt lat="44.58096" lon="2.64581">
        <ele>580.25</ele>
        <time>2023-04-18T12:19:47.542Z</time>
      </trkpt>
      <trkpt lat="44.58097" lon="2.64574">
        <ele>582.25</ele>
        <time>2023-04-18T12:19:58.062Z</time>
      </trkpt>
      <trkpt lat="44.58099" lon="2.64571">
        <ele>583</ele>
        <time>2023-04-18T12:20:08.533Z</time>
      </trkpt>
      <trkpt lat="44.58101" lon="2.64566">
        <ele>585.19</ele>
        <time>2023-04-18T12:20:19.574Z</time>
      </trkpt>
      <trkpt lat="44.58104" lon="2.6456">
        <ele>586.25</ele>
        <time>2023-04-18T12:20:29.991Z</time>
      </trkpt>
      <trkpt lat="44.58107" lon="2.64555">
        <ele>589.25</ele>
        <time>2023-04-18T12:20:40.292Z</time>
      </trkpt>
      <trkpt lat="44.58109" lon="2.64551">
        <ele>591.25</ele>
        <time>2023-04-18T12:20:51.263Z</time>
      </trkpt>
      <trkpt lat="44.58111" lon="2.64544">
        <ele>594</ele>
        <time>2023-04-18T12:21:01.841Z</time>
      </trkpt>
      <trkpt lat="44.58113" lon="2.64536">
        <ele>595.75</ele>
        <time>2023-04-18T12:21:12.232Z</time>
      </trkpt>
      <trkpt lat="44.58116" lon="2.64528">
        <ele>597.25</ele>
        <time>2023-04-18T12:21:22.692Z</time>
      </trkpt>
      <trkpt lat="44.58119" lon="2.64519">
        <ele>598.25</ele>
        <time>2023-04-18T12:21:32.742Z</time>
      </trkpt>
      <trkpt lat="44.58123" lon="2.64513">
        <ele>599.25</ele>
        <time>2023-04-18T12:21:43.282Z</time>
      </trkpt>
      <trkpt lat="44.58123" lon="2.64511">
        <ele>599.25</ele>
        <time>2023-04-18T12:21:54.301Z</time>
      </trkpt>
      <trkpt lat="44.58125" lon="2.64509">
        <ele>601</ele>
        <time>2023-04-18T12:22:05.242Z</time>
      </trkpt>
      <trkpt lat="44.58128" lon="2.64504">
        <ele>603.25</ele>
        <time>2023-04-18T12:22:15.712Z</time>
      </trkpt>
      <trkpt lat="44.58129" lon="2.64503">
        <ele>603.25</ele>
        <time>2023-04-18T12:22:26.302Z</time>
      </trkpt>
      <trkpt lat="44.5813" lon="2.64503">
        <ele>605.19</ele>
        <time>2023-04-18T12:22:36.669Z</time>
      </trkpt>
      <trkpt lat="44.58132" lon="2.64503">
        <ele>606.24</ele>
        <time>2023-04-18T12:22:46.732Z</time>
      </trkpt>
      <trkpt lat="44.58136" lon="2.64503">
        <ele>607.24</ele>
        <time>2023-04-18T12:22:57.267Z</time>
      </trkpt>
      <trkpt lat="44.58138" lon="2.64501">
        <ele>608.99</ele>
        <time>2023-04-18T12:23:08.203Z</time>
      </trkpt>
      <trkpt lat="44.58144" lon="2.64506">
        <ele>608.26</ele>
        <time>2023-04-18T12:23:18.611Z</time>
      </trkpt>
      <trkpt lat="44.5815" lon="2.64505">
        <ele>608.25</ele>
        <time>2023-04-18T12:23:29.162Z</time>
      </trkpt>
      <trkpt lat="44.58154" lon="2.64502">
        <ele>611.25</ele>
        <time>2023-04-18T12:23:39.647Z</time>
      </trkpt>
      <trkpt lat="44.5816" lon="2.64502">
        <ele>611.25</ele>
        <time>2023-04-18T12:23:50.092Z</time>
      </trkpt>
      <trkpt lat="44.58166" lon="2.645">
        <ele>614.25</ele>
        <time>2023-04-18T12:24:00.441Z</time>
      </trkpt>
      <trkpt lat="44.58171" lon="2.64492">
        <ele>616.25</ele>
        <time>2023-04-18T12:24:10.883Z</time>
      </trkpt>
      <trkpt lat="44.58182" lon="2.64487">
        <ele>617.25</ele>
        <time>2023-04-18T12:24:21.347Z</time>
      </trkpt>
      <trkpt lat="44.58189" lon="2.64487">
        <ele>618.25</ele>
        <time>2023-04-18T12:24:31.852Z</time>
      </trkpt>
      <trkpt lat="44.58196" lon="2.64484">
        <ele>621.19</ele>
        <time>2023-04-18T12:24:42.242Z</time>
      </trkpt>
      <trkpt lat="44.58202" lon="2.6447">
        <ele>623.25</ele>
        <time>2023-04-18T12:24:52.589Z</time>
      </trkpt>
      <trkpt lat="44.58203" lon="2.64461">
        <ele>623.26</ele>
        <time>2023-04-18T12:25:03.483Z</time>
      </trkpt>
      <trkpt lat="44.58205" lon="2.64443">
        <ele>622.25</ele>
        <time>2023-04-18T12:25:13.967Z</time>
      </trkpt>
      <trkpt lat="44.58208" lon="2.64433">
        <ele>622.26</ele>
        <time>2023-04-18T12:25:24.452Z</time>
      </trkpt>
      <trkpt lat="44.5821" lon="2.64431">
        <ele>623.01</ele>
        <time>2023-04-18T12:25:34.932Z</time>
      </trkpt>
      <trkpt lat="44.58211" lon="2.6442">
        <ele>624.26</ele>
        <time>2023-04-18T12:25:45.332Z</time>
      </trkpt>
      <trkpt lat="44.58214" lon="2.64406">
        <ele>625.26</ele>
        <time>2023-04-18T12:25:55.732Z</time>
      </trkpt>
      <trkpt lat="44.58214" lon="2.64399">
        <ele>624.26</ele>
        <time>2023-04-18T12:26:06.301Z</time>
      </trkpt>
      <trkpt lat="44.58212" lon="2.64379">
        <ele>622.26</ele>
        <time>2023-04-18T12:26:16.767Z</time>
      </trkpt>
      <trkpt lat="44.5821" lon="2.64373">
        <ele>622.26</ele>
        <time>2023-04-18T12:26:27.142Z</time>
      </trkpt>
      <trkpt lat="44.58211" lon="2.64373">
        <ele>621.19</ele>
        <time>2023-04-18T12:26:43.542Z</time>
      </trkpt>
      <trkpt lat="44.58212" lon="2.64372">
        <ele>620.07</ele>
        <time>2023-04-18T12:30:38.593Z</time>
      </trkpt>
      <trkpt lat="44.58211" lon="2.64373">
        <ele>620.26</ele>
        <time>2023-04-18T12:30:50.721Z</time>
      </trkpt>
      <trkpt lat="44.58211" lon="2.64371">
        <ele>620.26</ele>
        <time>2023-04-18T12:31:01.591Z</time>
      </trkpt>
      <trkpt lat="44.58212" lon="2.6437">
        <ele>619.26</ele>
        <time>2023-04-18T12:31:25.597Z</time>
      </trkpt>
      <trkpt lat="44.58212" lon="2.64371">
        <ele>618.51</ele>
        <time>2023-04-18T12:31:58.588Z</time>
      </trkpt>
      <trkpt lat="44.58211" lon="2.64365">
        <ele>619.26</ele>
        <time>2023-04-18T12:32:09.262Z</time>
      </trkpt>
      <trkpt lat="44.58211" lon="2.64359">
        <ele>619.26</ele>
        <time>2023-04-18T12:32:19.342Z</time>
      </trkpt>
      <trkpt lat="44.58207" lon="2.64346">
        <ele>618.26</ele>
        <time>2023-04-18T12:32:30.463Z</time>
      </trkpt>
      <trkpt lat="44.58207" lon="2.6434">
        <ele>618.26</ele>
        <time>2023-04-18T12:32:41.302Z</time>
      </trkpt>
      <trkpt lat="44.58206" lon="2.64337">
        <ele>618.26</ele>
        <time>2023-04-18T12:32:51.652Z</time>
      </trkpt>
      <trkpt lat="44.58206" lon="2.64326">
        <ele>619.26</ele>
        <time>2023-04-18T12:33:02.071Z</time>
      </trkpt>
      <trkpt lat="44.58202" lon="2.64316">
        <ele>619.2</ele>
        <time>2023-04-18T12:33:12.492Z</time>
      </trkpt>
      <trkpt lat="44.58201" lon="2.64311">
        <ele>618.26</ele>
        <time>2023-04-18T12:33:23.481Z</time>
      </trkpt>
      <trkpt lat="44.582" lon="2.64299">
        <ele>619.01</ele>
        <time>2023-04-18T12:33:33.942Z</time>
      </trkpt>
      <trkpt lat="44.58197" lon="2.64293">
        <ele>618.32</ele>
        <time>2023-04-18T12:33:44.442Z</time>
      </trkpt>
      <trkpt lat="44.58194" lon="2.64286">
        <ele>617.26</ele>
        <time>2023-04-18T12:33:54.963Z</time>
      </trkpt>
      <trkpt lat="44.58192" lon="2.64279">
        <ele>617.26</ele>
        <time>2023-04-18T12:34:05.351Z</time>
      </trkpt>
      <trkpt lat="44.5819" lon="2.64269">
        <ele>616.26</ele>
        <time>2023-04-18T12:34:16.242Z</time>
      </trkpt>
      <trkpt lat="44.58189" lon="2.64256">
        <ele>613.27</ele>
        <time>2023-04-18T12:34:26.542Z</time>
      </trkpt>
      <trkpt lat="44.58188" lon="2.64253">
        <ele>612.26</ele>
        <time>2023-04-18T12:34:37.584Z</time>
      </trkpt>
      <trkpt lat="44.58188" lon="2.64251">
        <ele>611.32</ele>
        <time>2023-04-18T12:34:48.082Z</time>
      </trkpt>
      <trkpt lat="44.58184" lon="2.64241">
        <ele>609.26</ele>
        <time>2023-04-18T12:34:58.521Z</time>
      </trkpt>
      <trkpt lat="44.58181" lon="2.64236">
        <ele>607.26</ele>
        <time>2023-04-18T12:35:09.012Z</time>
      </trkpt>
      <trkpt lat="44.58176" lon="2.64227">
        <ele>605.26</ele>
        <time>2023-04-18T12:35:19.371Z</time>
      </trkpt>
      <trkpt lat="44.58172" lon="2.64221">
        <ele>604.26</ele>
        <time>2023-04-18T12:35:29.862Z</time>
      </trkpt>
      <trkpt lat="44.58167" lon="2.64214">
        <ele>601.26</ele>
        <time>2023-04-18T12:35:40.262Z</time>
      </trkpt>
      <trkpt lat="44.58164" lon="2.64206">
        <ele>600.26</ele>
        <time>2023-04-18T12:35:50.312Z</time>
      </trkpt>
      <trkpt lat="44.58164" lon="2.64192">
        <ele>598.26</ele>
        <time>2023-04-18T12:36:00.612Z</time>
      </trkpt>
      <trkpt lat="44.58162" lon="2.64181">
        <ele>594.28</ele>
        <time>2023-04-18T12:36:11.053Z</time>
      </trkpt>
      <trkpt lat="44.5816" lon="2.64169">
        <ele>595.2</ele>
        <time>2023-04-18T12:36:21.522Z</time>
      </trkpt>
      <trkpt lat="44.58157" lon="2.64158">
        <ele>593.51</ele>
        <time>2023-04-18T12:36:31.522Z</time>
      </trkpt>
      <trkpt lat="44.5815" lon="2.64142">
        <ele>593.26</ele>
        <time>2023-04-18T12:36:42.022Z</time>
      </trkpt>
      <trkpt lat="44.58145" lon="2.64131">
        <ele>592.26</ele>
        <time>2023-04-18T12:36:52.401Z</time>
      </trkpt>
      <trkpt lat="44.58145" lon="2.64122">
        <ele>590.21</ele>
        <time>2023-04-18T12:37:02.852Z</time>
      </trkpt>
      <trkpt lat="44.58145" lon="2.64114">
        <ele>588.26</ele>
        <time>2023-04-18T12:37:13.103Z</time>
      </trkpt>
      <trkpt lat="44.58145" lon="2.64104">
        <ele>584.26</ele>
        <time>2023-04-18T12:37:23.542Z</time>
      </trkpt>
      <trkpt lat="44.58143" lon="2.641">
        <ele>583.26</ele>
        <time>2023-04-18T12:37:34.593Z</time>
      </trkpt>
      <trkpt lat="44.58141" lon="2.64095">
        <ele>584.2</ele>
        <time>2023-04-18T12:37:45.064Z</time>
      </trkpt>
      <trkpt lat="44.5814" lon="2.64094">
        <ele>584.26</ele>
        <time>2023-04-18T12:37:55.263Z</time>
      </trkpt>
      <trkpt lat="44.5814" lon="2.64094">
        <ele>584.26</ele>
        <time>2023-04-18T12:38:07.512Z</time>
      </trkpt>
      <trkpt lat="44.58143" lon="2.64099">
        <ele>582.26</ele>
        <time>2023-04-18T12:38:18.472Z</time>
      </trkpt>
      <trkpt lat="44.58144" lon="2.64099">
        <ele>581.26</ele>
        <time>2023-04-18T12:38:33.492Z</time>
      </trkpt>
      <trkpt lat="44.58145" lon="2.641">
        <ele>583</ele>
        <time>2023-04-18T12:38:53.802Z</time>
      </trkpt>
      <trkpt lat="44.58145" lon="2.64101">
        <ele>583.25</ele>
        <time>2023-04-18T12:39:18.502Z</time>
      </trkpt>
      <trkpt lat="44.5815" lon="2.64101">
        <ele>583.26</ele>
        <time>2023-04-18T12:39:29.481Z</time>
      </trkpt>
      <trkpt lat="44.5816" lon="2.64096">
        <ele>581.26</ele>
        <time>2023-04-18T12:39:39.843Z</time>
      </trkpt>
      <trkpt lat="44.58163" lon="2.64092">
        <ele>580.26</ele>
        <time>2023-04-18T12:39:50.342Z</time>
      </trkpt>
      <trkpt lat="44.58173" lon="2.64086">
        <ele>579.5</ele>
        <time>2023-04-18T12:40:00.652Z</time>
      </trkpt>
      <trkpt lat="44.58177" lon="2.6408">
        <ele>578.76</ele>
        <time>2023-04-18T12:40:11.604Z</time>
      </trkpt>
      <trkpt lat="44.5819" lon="2.64076">
        <ele>575.28</ele>
        <time>2023-04-18T12:40:22.066Z</time>
      </trkpt>
      <trkpt lat="44.58192" lon="2.64076">
        <ele>575.26</ele>
        <time>2023-04-18T12:40:32.586Z</time>
      </trkpt>
      <trkpt lat="44.58196" lon="2.64074">
        <ele>574.33</ele>
        <time>2023-04-18T12:40:42.972Z</time>
      </trkpt>
      <trkpt lat="44.582" lon="2.64068">
        <ele>572.27</ele>
        <time>2023-04-18T12:40:53.521Z</time>
      </trkpt>
      <trkpt lat="44.58202" lon="2.64064">
        <ele>570.28</ele>
        <time>2023-04-18T12:41:03.521Z</time>
      </trkpt>
      <trkpt lat="44.58209" lon="2.64052">
        <ele>569.26</ele>
        <time>2023-04-18T12:41:13.963Z</time>
      </trkpt>
      <trkpt lat="44.58216" lon="2.64043">
        <ele>568.26</ele>
        <time>2023-04-18T12:41:24.161Z</time>
      </trkpt>
      <trkpt lat="44.58218" lon="2.6404">
        <ele>566.26</ele>
        <time>2023-04-18T12:41:34.163Z</time>
      </trkpt>
      <trkpt lat="44.58219" lon="2.64038">
        <ele>565.26</ele>
        <time>2023-04-18T12:41:44.222Z</time>
      </trkpt>
      <trkpt lat="44.58223" lon="2.64036">
        <ele>562.33</ele>
        <time>2023-04-18T12:41:55.311Z</time>
      </trkpt>
      <trkpt lat="44.58232" lon="2.64034">
        <ele>560.52</ele>
        <time>2023-04-18T12:42:05.353Z</time>
      </trkpt>
      <trkpt lat="44.58234" lon="2.64034">
        <ele>559.26</ele>
        <time>2023-04-18T12:42:15.782Z</time>
      </trkpt>
      <trkpt lat="44.58238" lon="2.64033">
        <ele>556.26</ele>
        <time>2023-04-18T12:42:26.283Z</time>
      </trkpt>
      <trkpt lat="44.5824" lon="2.64031">
        <ele>556.26</ele>
        <time>2023-04-18T12:42:37.271Z</time>
      </trkpt>
      <trkpt lat="44.58245" lon="2.64025">
        <ele>556.27</ele>
        <time>2023-04-18T12:42:47.802Z</time>
      </trkpt>
      <trkpt lat="44.58252" lon="2.6402">
        <ele>552.28</ele>
        <time>2023-04-18T12:42:58.341Z</time>
      </trkpt>
      <trkpt lat="44.58258" lon="2.64016">
        <ele>551.26</ele>
        <time>2023-04-18T12:43:08.713Z</time>
      </trkpt>
      <trkpt lat="44.58269" lon="2.64007">
        <ele>552.26</ele>
        <time>2023-04-18T12:43:19.102Z</time>
      </trkpt>
      <trkpt lat="44.58276" lon="2.64001">
        <ele>552.26</ele>
        <time>2023-04-18T12:43:29.482Z</time>
      </trkpt>
      <trkpt lat="44.58278" lon="2.63996">
        <ele>552.26</ele>
        <time>2023-04-18T12:43:39.952Z</time>
      </trkpt>
      <trkpt lat="44.58281" lon="2.63991">
        <ele>551.26</ele>
        <time>2023-04-18T12:43:50.452Z</time>
      </trkpt>
      <trkpt lat="44.58287" lon="2.6398">
        <ele>551.26</ele>
        <time>2023-04-18T12:44:00.981Z</time>
      </trkpt>
      <trkpt lat="44.58294" lon="2.63971">
        <ele>549.28</ele>
        <time>2023-04-18T12:44:11.482Z</time>
      </trkpt>
      <trkpt lat="44.58301" lon="2.63963">
        <ele>546.51</ele>
        <time>2023-04-18T12:44:21.902Z</time>
      </trkpt>
      <trkpt lat="44.58309" lon="2.63956">
        <ele>545.27</ele>
        <time>2023-04-18T12:44:32.282Z</time>
      </trkpt>
      <trkpt lat="44.58317" lon="2.63946">
        <ele>544.26</ele>
        <time>2023-04-18T12:44:42.752Z</time>
      </trkpt>
      <trkpt lat="44.58323" lon="2.63935">
        <ele>546.25</ele>
        <time>2023-04-18T12:44:53.152Z</time>
      </trkpt>
      <trkpt lat="44.58327" lon="2.6392">
        <ele>545.33</ele>
        <time>2023-04-18T12:45:03.612Z</time>
      </trkpt>
      <trkpt lat="44.5833" lon="2.63914">
        <ele>544.27</ele>
        <time>2023-04-18T12:45:14.612Z</time>
      </trkpt>
      <trkpt lat="44.58332" lon="2.63912">
        <ele>543.27</ele>
        <time>2023-04-18T12:45:25.543Z</time>
      </trkpt>
      <trkpt lat="44.58331" lon="2.63911">
        <ele>543.27</ele>
        <time>2023-04-18T12:45:39.591Z</time>
      </trkpt>
      <trkpt lat="44.58334" lon="2.63909">
        <ele>543.27</ele>
        <time>2023-04-18T12:45:50.332Z</time>
      </trkpt>
      <trkpt lat="44.5834" lon="2.63897">
        <ele>544.27</ele>
        <time>2023-04-18T12:46:00.802Z</time>
      </trkpt>
      <trkpt lat="44.58349" lon="2.63887">
        <ele>544.27</ele>
        <time>2023-04-18T12:46:11.282Z</time>
      </trkpt>
      <trkpt lat="44.58358" lon="2.6388">
        <ele>543.28</ele>
        <time>2023-04-18T12:46:22.323Z</time>
      </trkpt>
      <trkpt lat="44.58362" lon="2.63874">
        <ele>543.27</ele>
        <time>2023-04-18T12:46:33.202Z</time>
      </trkpt>
      <trkpt lat="44.58367" lon="2.6387">
        <ele>543.27</ele>
        <time>2023-04-18T12:46:43.652Z</time>
      </trkpt>
      <trkpt lat="44.58379" lon="2.63861">
        <ele>541.27</ele>
        <time>2023-04-18T12:46:54.101Z</time>
      </trkpt>
      <trkpt lat="44.58386" lon="2.63852">
        <ele>541.26</ele>
        <time>2023-04-18T12:47:04.122Z</time>
      </trkpt>
      <trkpt lat="44.58392" lon="2.63839">
        <ele>541.33</ele>
        <time>2023-04-18T12:47:14.593Z</time>
      </trkpt>
      <trkpt lat="44.58399" lon="2.63825">
        <ele>538.52</ele>
        <time>2023-04-18T12:47:24.982Z</time>
      </trkpt>
      <trkpt lat="44.58408" lon="2.63811">
        <ele>535.27</ele>
        <time>2023-04-18T12:47:35.351Z</time>
      </trkpt>
      <trkpt lat="44.58417" lon="2.63807">
        <ele>535.25</ele>
        <time>2023-04-18T12:47:45.762Z</time>
      </trkpt>
      <trkpt lat="44.58422" lon="2.63801">
        <ele>533.27</ele>
        <time>2023-04-18T12:47:56.293Z</time>
      </trkpt>
      <trkpt lat="44.58429" lon="2.63796">
        <ele>530.58</ele>
        <time>2023-04-18T12:48:06.577Z</time>
      </trkpt>
      <trkpt lat="44.58433" lon="2.63792">
        <ele>528.27</ele>
        <time>2023-04-18T12:48:16.594Z</time>
      </trkpt>
      <trkpt lat="44.58446" lon="2.63786">
        <ele>525.27</ele>
        <time>2023-04-18T12:48:27.062Z</time>
      </trkpt>
      <trkpt lat="44.58457" lon="2.63785">
        <ele>525.27</ele>
        <time>2023-04-18T12:48:37.523Z</time>
      </trkpt>
      <trkpt lat="44.58465" lon="2.63777">
        <ele>526.27</ele>
        <time>2023-04-18T12:48:47.943Z</time>
      </trkpt>
      <trkpt lat="44.58469" lon="2.6377">
        <ele>528.02</ele>
        <time>2023-04-18T12:48:58.383Z</time>
      </trkpt>
      <trkpt lat="44.58476" lon="2.63752">
        <ele>527.27</ele>
        <time>2023-04-18T12:49:08.742Z</time>
      </trkpt>
      <trkpt lat="44.58478" lon="2.63747">
        <ele>526.27</ele>
        <time>2023-04-18T12:49:19.111Z</time>
      </trkpt>
      <trkpt lat="44.58478" lon="2.63745">
        <ele>528.19</ele>
        <time>2023-04-18T12:49:29.651Z</time>
      </trkpt>
      <trkpt lat="44.58484" lon="2.63735">
        <ele>526.27</ele>
        <time>2023-04-18T12:49:39.941Z</time>
      </trkpt>
      <trkpt lat="44.58493" lon="2.63721">
        <ele>526.27</ele>
        <time>2023-04-18T12:49:50.362Z</time>
      </trkpt>
      <trkpt lat="44.58499" lon="2.6371">
        <ele>526.33</ele>
        <time>2023-04-18T12:50:00.652Z</time>
      </trkpt>
      <trkpt lat="44.58506" lon="2.63702">
        <ele>526.27</ele>
        <time>2023-04-18T12:50:11.002Z</time>
      </trkpt>
      <trkpt lat="44.58513" lon="2.63692">
        <ele>529.27</ele>
        <time>2023-04-18T12:50:21.512Z</time>
      </trkpt>
      <trkpt lat="44.58516" lon="2.63681">
        <ele>531.27</ele>
        <time>2023-04-18T12:50:32.023Z</time>
      </trkpt>
      <trkpt lat="44.58516" lon="2.63672">
        <ele>533.28</ele>
        <time>2023-04-18T12:50:42.451Z</time>
      </trkpt>
      <trkpt lat="44.58517" lon="2.63671">
        <ele>534.25</ele>
        <time>2023-04-18T12:51:05.599Z</time>
      </trkpt>
      <trkpt lat="44.58519" lon="2.6366">
        <ele>535.21</ele>
        <time>2023-04-18T12:51:16.091Z</time>
      </trkpt>
      <trkpt lat="44.58521" lon="2.63648">
        <ele>538.21</ele>
        <time>2023-04-18T12:51:26.543Z</time>
      </trkpt>
      <trkpt lat="44.58523" lon="2.63638">
        <ele>540.27</ele>
        <time>2023-04-18T12:51:36.924Z</time>
      </trkpt>
      <trkpt lat="44.58529" lon="2.63625">
        <ele>542.27</ele>
        <time>2023-04-18T12:51:47.252Z</time>
      </trkpt>
      <trkpt lat="44.58533" lon="2.63613">
        <ele>543.27</ele>
        <time>2023-04-18T12:51:57.652Z</time>
      </trkpt>
      <trkpt lat="44.58537" lon="2.636">
        <ele>545.27</ele>
        <time>2023-04-18T12:52:08.062Z</time>
      </trkpt>
      <trkpt lat="44.58544" lon="2.63594">
        <ele>546.27</ele>
        <time>2023-04-18T12:52:18.432Z</time>
      </trkpt>
      <trkpt lat="44.58555" lon="2.63584">
        <ele>546.25</ele>
        <time>2023-04-18T12:52:29.323Z</time>
      </trkpt>
      <trkpt lat="44.58564" lon="2.63573">
        <ele>546.26</ele>
        <time>2023-04-18T12:52:39.702Z</time>
      </trkpt>
      <trkpt lat="44.58575" lon="2.63564">
        <ele>545.29</ele>
        <time>2023-04-18T12:52:49.792Z</time>
      </trkpt>
      <trkpt lat="44.58587" lon="2.63558">
        <ele>543.27</ele>
        <time>2023-04-18T12:53:00.291Z</time>
      </trkpt>
      <trkpt lat="44.58596" lon="2.63553">
        <ele>544.27</ele>
        <time>2023-04-18T12:53:10.813Z</time>
      </trkpt>
      <trkpt lat="44.58606" lon="2.63546">
        <ele>545.21</ele>
        <time>2023-04-18T12:53:21.352Z</time>
      </trkpt>
      <trkpt lat="44.58613" lon="2.63537">
        <ele>546.27</ele>
        <time>2023-04-18T12:53:31.702Z</time>
      </trkpt>
      <trkpt lat="44.58621" lon="2.63526">
        <ele>546.27</ele>
        <time>2023-04-18T12:53:42.052Z</time>
      </trkpt>
      <trkpt lat="44.58627" lon="2.63515">
        <ele>548.27</ele>
        <time>2023-04-18T12:53:52.511Z</time>
      </trkpt>
      <trkpt lat="44.58631" lon="2.63503">
        <ele>552.02</ele>
        <time>2023-04-18T12:54:03.043Z</time>
      </trkpt>
      <trkpt lat="44.58634" lon="2.63491">
        <ele>555.27</ele>
        <time>2023-04-18T12:54:13.551Z</time>
      </trkpt>
      <trkpt lat="44.58637" lon="2.63478">
        <ele>557.27</ele>
        <time>2023-04-18T12:54:24.032Z</time>
      </trkpt>
      <trkpt lat="44.58641" lon="2.63464">
        <ele>559.02</ele>
        <time>2023-04-18T12:54:34.491Z</time>
      </trkpt>
      <trkpt lat="44.58645" lon="2.63447">
        <ele>559.27</ele>
        <time>2023-04-18T12:54:45.012Z</time>
      </trkpt>
      <trkpt lat="44.58647" lon="2.63432">
        <ele>561.27</ele>
        <time>2023-04-18T12:54:55.403Z</time>
      </trkpt>
      <trkpt lat="44.58644" lon="2.63417">
        <ele>563.28</ele>
        <time>2023-04-18T12:55:05.901Z</time>
      </trkpt>
      <trkpt lat="44.58645" lon="2.63401">
        <ele>563.27</ele>
        <time>2023-04-18T12:55:16.402Z</time>
      </trkpt>
      <trkpt lat="44.58647" lon="2.63389">
        <ele>563.26</ele>
        <time>2023-04-18T12:55:27.392Z</time>
      </trkpt>
      <trkpt lat="44.58649" lon="2.63374">
        <ele>563.52</ele>
        <time>2023-04-18T12:55:37.761Z</time>
      </trkpt>
      <trkpt lat="44.58649" lon="2.63372">
        <ele>563.04</ele>
        <time>2023-04-18T12:56:03.792Z</time>
      </trkpt>
      <trkpt lat="44.58651" lon="2.63358">
        <ele>565.02</ele>
        <time>2023-04-18T12:56:14.083Z</time>
      </trkpt>
      <trkpt lat="44.58656" lon="2.63346">
        <ele>566.02</ele>
        <time>2023-04-18T12:56:24.562Z</time>
      </trkpt>
      <trkpt lat="44.58661" lon="2.63336">
        <ele>566.27</ele>
        <time>2023-04-18T12:56:34.583Z</time>
      </trkpt>
      <trkpt lat="44.58668" lon="2.63326">
        <ele>567.27</ele>
        <time>2023-04-18T12:56:45.053Z</time>
      </trkpt>
      <trkpt lat="44.58678" lon="2.63313">
        <ele>567.28</ele>
        <time>2023-04-18T12:56:55.402Z</time>
      </trkpt>
      <trkpt lat="44.5869" lon="2.63303">
        <ele>566.29</ele>
        <time>2023-04-18T12:57:05.652Z</time>
      </trkpt>
      <trkpt lat="44.58702" lon="2.63296">
        <ele>565.04</ele>
        <time>2023-04-18T12:57:16.602Z</time>
      </trkpt>
      <trkpt lat="44.58713" lon="2.63293">
        <ele>565.28</ele>
        <time>2023-04-18T12:57:27.113Z</time>
      </trkpt>
      <trkpt lat="44.58721" lon="2.63295">
        <ele>567.22</ele>
        <time>2023-04-18T12:57:37.213Z</time>
      </trkpt>
      <trkpt lat="44.58732" lon="2.63295">
        <ele>568.28</ele>
        <time>2023-04-18T12:57:48.333Z</time>
      </trkpt>
      <trkpt lat="44.58742" lon="2.63294">
        <ele>568.27</ele>
        <time>2023-04-18T12:57:58.572Z</time>
      </trkpt>
      <trkpt lat="44.58754" lon="2.63294">
        <ele>569.28</ele>
        <time>2023-04-18T12:58:09.543Z</time>
      </trkpt>
      <trkpt lat="44.58764" lon="2.63292">
        <ele>570.27</ele>
        <time>2023-04-18T12:58:19.578Z</time>
      </trkpt>
      <trkpt lat="44.58775" lon="2.63289">
        <ele>571.28</ele>
        <time>2023-04-18T12:58:30.061Z</time>
      </trkpt>
      <trkpt lat="44.58786" lon="2.63286">
        <ele>572.28</ele>
        <time>2023-04-18T12:58:40.432Z</time>
      </trkpt>
      <trkpt lat="44.58794" lon="2.63283">
        <ele>573.28</ele>
        <time>2023-04-18T12:58:50.853Z</time>
      </trkpt>
      <trkpt lat="44.58805" lon="2.63283">
        <ele>574.28</ele>
        <time>2023-04-18T12:59:01.111Z</time>
      </trkpt>
      <trkpt lat="44.58814" lon="2.63278">
        <ele>578.28</ele>
        <time>2023-04-18T12:59:11.432Z</time>
      </trkpt>
      <trkpt lat="44.58825" lon="2.63274">
        <ele>579.27</ele>
        <time>2023-04-18T12:59:21.511Z</time>
      </trkpt>
      <trkpt lat="44.58834" lon="2.63272">
        <ele>580.02</ele>
        <time>2023-04-18T12:59:31.962Z</time>
      </trkpt>
      <trkpt lat="44.58843" lon="2.63267">
        <ele>580.28</ele>
        <time>2023-04-18T12:59:42.462Z</time>
      </trkpt>
      <trkpt lat="44.58851" lon="2.63264">
        <ele>581.28</ele>
        <time>2023-04-18T12:59:52.912Z</time>
      </trkpt>
      <trkpt lat="44.58859" lon="2.63256">
        <ele>586.2</ele>
        <time>2023-04-18T13:00:03.271Z</time>
      </trkpt>
      <trkpt lat="44.58866" lon="2.63256">
        <ele>587.23</ele>
        <time>2023-04-18T13:00:13.772Z</time>
      </trkpt>
      <trkpt lat="44.58859" lon="2.63264">
        <ele>588.03</ele>
        <time>2023-04-18T13:00:24.362Z</time>
      </trkpt>
      <trkpt lat="44.58854" lon="2.63274">
        <ele>589.26</ele>
        <time>2023-04-18T13:00:34.933Z</time>
      </trkpt>
      <trkpt lat="44.58846" lon="2.63281">
        <ele>593.27</ele>
        <time>2023-04-18T13:00:45.392Z</time>
      </trkpt>
      <trkpt lat="44.5884" lon="2.63293">
        <ele>594.21</ele>
        <time>2023-04-18T13:00:55.912Z</time>
      </trkpt>
      <trkpt lat="44.58833" lon="2.63302">
        <ele>593.27</ele>
        <time>2023-04-18T13:01:06.372Z</time>
      </trkpt>
      <trkpt lat="44.58825" lon="2.63312">
        <ele>593.29</ele>
        <time>2023-04-18T13:01:16.782Z</time>
      </trkpt>
      <trkpt lat="44.58817" lon="2.63319">
        <ele>594.27</ele>
        <time>2023-04-18T13:01:27.262Z</time>
      </trkpt>
      <trkpt lat="44.58819" lon="2.63324">
        <ele>595.29</ele>
        <time>2023-04-18T13:01:37.652Z</time>
      </trkpt>
      <trkpt lat="44.58828" lon="2.6332">
        <ele>596.27</ele>
        <time>2023-04-18T13:01:47.992Z</time>
      </trkpt>
      <trkpt lat="44.58838" lon="2.63313">
        <ele>595.27</ele>
        <time>2023-04-18T13:01:58.367Z</time>
      </trkpt>
      <trkpt lat="44.58849" lon="2.63308">
        <ele>596.27</ele>
        <time>2023-04-18T13:02:08.903Z</time>
      </trkpt>
      <trkpt lat="44.58859" lon="2.63304">
        <ele>597.26</ele>
        <time>2023-04-18T13:02:19.363Z</time>
      </trkpt>
      <trkpt lat="44.58869" lon="2.633">
        <ele>600.26</ele>
        <time>2023-04-18T13:02:29.771Z</time>
      </trkpt>
      <trkpt lat="44.58879" lon="2.63301">
        <ele>601.27</ele>
        <time>2023-04-18T13:02:40.172Z</time>
      </trkpt>
      <trkpt lat="44.58886" lon="2.63301">
        <ele>604.04</ele>
        <time>2023-04-18T13:02:50.193Z</time>
      </trkpt>
      <trkpt lat="44.58892" lon="2.63303">
        <ele>604.27</ele>
        <time>2023-04-18T13:03:00.590Z</time>
      </trkpt>
      <trkpt lat="44.58902" lon="2.63305">
        <ele>604.27</ele>
        <time>2023-04-18T13:03:11.042Z</time>
      </trkpt>
      <trkpt lat="44.58911" lon="2.63309">
        <ele>603.28</ele>
        <time>2023-04-18T13:03:21.462Z</time>
      </trkpt>
      <trkpt lat="44.58919" lon="2.63316">
        <ele>606.21</ele>
        <time>2023-04-18T13:03:31.911Z</time>
      </trkpt>
      <trkpt lat="44.58922" lon="2.63322">
        <ele>607.52</ele>
        <time>2023-04-18T13:03:42.212Z</time>
      </trkpt>
      <trkpt lat="44.58928" lon="2.63335">
        <ele>608.27</ele>
        <time>2023-04-18T13:03:52.542Z</time>
      </trkpt>
      <trkpt lat="44.58931" lon="2.6335">
        <ele>607.27</ele>
        <time>2023-04-18T13:04:02.892Z</time>
      </trkpt>
      <trkpt lat="44.58936" lon="2.63363">
        <ele>609.27</ele>
        <time>2023-04-18T13:04:13.441Z</time>
      </trkpt>
      <trkpt lat="44.58938" lon="2.63367">
        <ele>608.29</ele>
        <time>2023-04-18T13:04:23.702Z</time>
      </trkpt>
      <trkpt lat="44.58939" lon="2.63368">
        <ele>608.27</ele>
        <time>2023-04-18T13:04:34.304Z</time>
      </trkpt>
      <trkpt lat="44.58938" lon="2.63368">
        <ele>606.02</ele>
        <time>2023-04-18T13:16:18.577Z</time>
      </trkpt>
      <trkpt lat="44.5894" lon="2.63367">
        <ele>606.02</ele>
        <time>2023-04-18T13:16:42.597Z</time>
      </trkpt>
      <trkpt lat="44.5895" lon="2.63366">
        <ele>606.07</ele>
        <time>2023-04-18T13:16:52.600Z</time>
      </trkpt>
      <trkpt lat="44.58961" lon="2.6337">
        <ele>605.27</ele>
        <time>2023-04-18T13:17:03.572Z</time>
      </trkpt>
      <trkpt lat="44.58969" lon="2.63363">
        <ele>606.04</ele>
        <time>2023-04-18T13:17:13.592Z</time>
      </trkpt>
      <trkpt lat="44.5897" lon="2.63351">
        <ele>608.27</ele>
        <time>2023-04-18T13:17:23.593Z</time>
      </trkpt>
      <trkpt lat="44.5897" lon="2.63337">
        <ele>609.27</ele>
        <time>2023-04-18T13:17:33.593Z</time>
      </trkpt>
      <trkpt lat="44.58973" lon="2.63321">
        <ele>610.27</ele>
        <time>2023-04-18T13:17:44.601Z</time>
      </trkpt>
      <trkpt lat="44.58976" lon="2.63303">
        <ele>609.28</ele>
        <time>2023-04-18T13:17:54.605Z</time>
      </trkpt>
      <trkpt lat="44.58976" lon="2.63286">
        <ele>608.27</ele>
        <time>2023-04-18T13:18:04.723Z</time>
      </trkpt>
      <trkpt lat="44.58978" lon="2.63269">
        <ele>607.27</ele>
        <time>2023-04-18T13:18:15.223Z</time>
      </trkpt>
      <trkpt lat="44.58984" lon="2.63254">
        <ele>607.27</ele>
        <time>2023-04-18T13:18:25.633Z</time>
      </trkpt>
      <trkpt lat="44.5899" lon="2.63241">
        <ele>605.29</ele>
        <time>2023-04-18T13:18:36.114Z</time>
      </trkpt>
      <trkpt lat="44.59003" lon="2.63229">
        <ele>603.28</ele>
        <time>2023-04-18T13:18:46.483Z</time>
      </trkpt>
      <trkpt lat="44.59015" lon="2.63217">
        <ele>602.28</ele>
        <time>2023-04-18T13:18:56.993Z</time>
      </trkpt>
      <trkpt lat="44.59026" lon="2.63209">
        <ele>602.28</ele>
        <time>2023-04-18T13:19:07.003Z</time>
      </trkpt>
      <trkpt lat="44.59036" lon="2.63207">
        <ele>598.53</ele>
        <time>2023-04-18T13:19:17.043Z</time>
      </trkpt>
      <trkpt lat="44.59041" lon="2.63209">
        <ele>596.28</ele>
        <time>2023-04-18T13:19:27.524Z</time>
      </trkpt>
      <trkpt lat="44.59041" lon="2.63211">
        <ele>595.28</ele>
        <time>2023-04-18T13:19:38.554Z</time>
      </trkpt>
      <trkpt lat="44.59042" lon="2.63212">
        <ele>594.34</ele>
        <time>2023-04-18T13:19:49.533Z</time>
      </trkpt>
      <trkpt lat="44.59052" lon="2.63207">
        <ele>595.28</ele>
        <time>2023-04-18T13:19:59.974Z</time>
      </trkpt>
      <trkpt lat="44.59054" lon="2.63207">
        <ele>595.28</ele>
        <time>2023-04-18T13:20:10.353Z</time>
      </trkpt>
      <trkpt lat="44.59062" lon="2.63199">
        <ele>595.28</ele>
        <time>2023-04-18T13:20:20.374Z</time>
      </trkpt>
      <trkpt lat="44.5907" lon="2.63191">
        <ele>595.29</ele>
        <time>2023-04-18T13:20:30.763Z</time>
      </trkpt>
      <trkpt lat="44.5908" lon="2.63183">
        <ele>593.28</ele>
        <time>2023-04-18T13:20:41.154Z</time>
      </trkpt>
      <trkpt lat="44.59092" lon="2.63174">
        <ele>592.28</ele>
        <time>2023-04-18T13:20:51.594Z</time>
      </trkpt>
      <trkpt lat="44.59101" lon="2.63166">
        <ele>592.28</ele>
        <time>2023-04-18T13:21:02.009Z</time>
      </trkpt>
      <trkpt lat="44.5911" lon="2.63159">
        <ele>592.28</ele>
        <time>2023-04-18T13:21:12.423Z</time>
      </trkpt>
      <trkpt lat="44.5912" lon="2.63156">
        <ele>587.29</ele>
        <time>2023-04-18T13:21:22.883Z</time>
      </trkpt>
      <trkpt lat="44.59124" lon="2.63152">
        <ele>582.28</ele>
        <time>2023-04-18T13:21:33.453Z</time>
      </trkpt>
      <trkpt lat="44.59132" lon="2.63146">
        <ele>582.27</ele>
        <time>2023-04-18T13:21:43.862Z</time>
      </trkpt>
      <trkpt lat="44.59136" lon="2.63143">
        <ele>582.28</ele>
        <time>2023-04-18T13:21:54.173Z</time>
      </trkpt>
      <trkpt lat="44.59136" lon="2.63144">
        <ele>581.28</ele>
        <time>2023-04-18T13:22:04.593Z</time>
      </trkpt>
      <trkpt lat="44.59137" lon="2.63144">
        <ele>579.34</ele>
        <time>2023-04-18T13:22:17.104Z</time>
      </trkpt>
      <trkpt lat="44.59146" lon="2.63141">
        <ele>577.53</ele>
        <time>2023-04-18T13:22:27.622Z</time>
      </trkpt>
      <trkpt lat="44.59155" lon="2.63137">
        <ele>578.28</ele>
        <time>2023-04-18T13:22:38.173Z</time>
      </trkpt>
      <trkpt lat="44.59161" lon="2.6313">
        <ele>579.26</ele>
        <time>2023-04-18T13:22:48.593Z</time>
      </trkpt>
      <trkpt lat="44.59164" lon="2.63122">
        <ele>578.28</ele>
        <time>2023-04-18T13:22:59.012Z</time>
      </trkpt>
      <trkpt lat="44.5917" lon="2.63107">
        <ele>575.28</ele>
        <time>2023-04-18T13:23:09.343Z</time>
      </trkpt>
      <trkpt lat="44.59175" lon="2.63095">
        <ele>573.53</ele>
        <time>2023-04-18T13:23:19.812Z</time>
      </trkpt>
      <trkpt lat="44.5918" lon="2.63082">
        <ele>570.28</ele>
        <time>2023-04-18T13:23:30.095Z</time>
      </trkpt>
      <trkpt lat="44.59186" lon="2.63073">
        <ele>568.53</ele>
        <time>2023-04-18T13:23:40.573Z</time>
      </trkpt>
      <trkpt lat="44.59191" lon="2.63065">
        <ele>567.28</ele>
        <time>2023-04-18T13:23:50.583Z</time>
      </trkpt>
      <trkpt lat="44.59196" lon="2.63057">
        <ele>567.28</ele>
        <time>2023-04-18T13:24:00.994Z</time>
      </trkpt>
      <trkpt lat="44.592" lon="2.63048">
        <ele>567.28</ele>
        <time>2023-04-18T13:24:11.004Z</time>
      </trkpt>
      <trkpt lat="44.59205" lon="2.63033">
        <ele>561.54</ele>
        <time>2023-04-18T13:24:21.235Z</time>
      </trkpt>
      <trkpt lat="44.59209" lon="2.63013">
        <ele>558.53</ele>
        <time>2023-04-18T13:24:31.595Z</time>
      </trkpt>
      <trkpt lat="44.59212" lon="2.63">
        <ele>554.34</ele>
        <time>2023-04-18T13:24:42.022Z</time>
      </trkpt>
      <trkpt lat="44.59214" lon="2.62988">
        <ele>551.28</ele>
        <time>2023-04-18T13:24:52.484Z</time>
      </trkpt>
      <trkpt lat="44.59217" lon="2.62975">
        <ele>548.28</ele>
        <time>2023-04-18T13:25:03.014Z</time>
      </trkpt>
      <trkpt lat="44.59222" lon="2.62961">
        <ele>548.53</ele>
        <time>2023-04-18T13:25:13.353Z</time>
      </trkpt>
      <trkpt lat="44.59232" lon="2.62949">
        <ele>548.26</ele>
        <time>2023-04-18T13:25:23.673Z</time>
      </trkpt>
      <trkpt lat="44.59243" lon="2.62939">
        <ele>550.28</ele>
        <time>2023-04-18T13:25:34.043Z</time>
      </trkpt>
      <trkpt lat="44.5925" lon="2.62932">
        <ele>547.03</ele>
        <time>2023-04-18T13:25:44.573Z</time>
      </trkpt>
      <trkpt lat="44.59258" lon="2.62919">
        <ele>547.34</ele>
        <time>2023-04-18T13:25:54.913Z</time>
      </trkpt>
      <trkpt lat="44.5926" lon="2.62916">
        <ele>546.28</ele>
        <time>2023-04-18T13:26:05.392Z</time>
      </trkpt>
      <trkpt lat="44.59266" lon="2.6291">
        <ele>544.28</ele>
        <time>2023-04-18T13:26:15.944Z</time>
      </trkpt>
      <trkpt lat="44.59273" lon="2.62903">
        <ele>543.34</ele>
        <time>2023-04-18T13:26:26.463Z</time>
      </trkpt>
      <trkpt lat="44.59281" lon="2.62892">
        <ele>543.28</ele>
        <time>2023-04-18T13:26:37.003Z</time>
      </trkpt>
      <trkpt lat="44.59285" lon="2.62882">
        <ele>542.53</ele>
        <time>2023-04-18T13:26:47.543Z</time>
      </trkpt>
      <trkpt lat="44.59295" lon="2.6287">
        <ele>541.34</ele>
        <time>2023-04-18T13:26:57.914Z</time>
      </trkpt>
      <trkpt lat="44.59304" lon="2.62861">
        <ele>544.28</ele>
        <time>2023-04-18T13:27:08.423Z</time>
      </trkpt>
      <trkpt lat="44.59309" lon="2.62856">
        <ele>543.29</ele>
        <time>2023-04-18T13:27:18.943Z</time>
      </trkpt>
      <trkpt lat="44.59319" lon="2.6285">
        <ele>545.28</ele>
        <time>2023-04-18T13:27:29.454Z</time>
      </trkpt>
      <trkpt lat="44.59329" lon="2.62843">
        <ele>547.28</ele>
        <time>2023-04-18T13:27:39.883Z</time>
      </trkpt>
      <trkpt lat="44.59339" lon="2.62837">
        <ele>544.34</ele>
        <time>2023-04-18T13:27:50.342Z</time>
      </trkpt>
      <trkpt lat="44.59345" lon="2.6283">
        <ele>544.28</ele>
        <time>2023-04-18T13:28:00.783Z</time>
      </trkpt>
      <trkpt lat="44.59353" lon="2.62823">
        <ele>544.28</ele>
        <time>2023-04-18T13:28:10.813Z</time>
      </trkpt>
      <trkpt lat="44.59359" lon="2.6282">
        <ele>545.28</ele>
        <time>2023-04-18T13:28:21.303Z</time>
      </trkpt>
      <trkpt lat="44.59368" lon="2.62817">
        <ele>545.28</ele>
        <time>2023-04-18T13:28:31.303Z</time>
      </trkpt>
      <trkpt lat="44.59372" lon="2.62814">
        <ele>548.2</ele>
        <time>2023-04-18T13:28:42.372Z</time>
      </trkpt>
      <trkpt lat="44.59377" lon="2.62811">
        <ele>550.28</ele>
        <time>2023-04-18T13:28:52.823Z</time>
      </trkpt>
      <trkpt lat="44.59382" lon="2.62811">
        <ele>550.03</ele>
        <time>2023-04-18T13:29:03.204Z</time>
      </trkpt>
      <trkpt lat="44.59389" lon="2.62809">
        <ele>552.28</ele>
        <time>2023-04-18T13:29:13.733Z</time>
      </trkpt>
      <trkpt lat="44.59395" lon="2.62805">
        <ele>556.28</ele>
        <time>2023-04-18T13:29:24.143Z</time>
      </trkpt>
      <trkpt lat="44.59402" lon="2.62796">
        <ele>558.28</ele>
        <time>2023-04-18T13:29:34.183Z</time>
      </trkpt>
      <trkpt lat="44.59404" lon="2.6279">
        <ele>558.28</ele>
        <time>2023-04-18T13:29:44.593Z</time>
      </trkpt>
      <trkpt lat="44.59413" lon="2.62779">
        <ele>558.22</ele>
        <time>2023-04-18T13:29:55.054Z</time>
      </trkpt>
      <trkpt lat="44.5942" lon="2.62773">
        <ele>557.34</ele>
        <time>2023-04-18T13:30:05.494Z</time>
      </trkpt>
      <trkpt lat="44.59425" lon="2.62766">
        <ele>559.28</ele>
        <time>2023-04-18T13:30:16.503Z</time>
      </trkpt>
      <trkpt lat="44.59433" lon="2.62762">
        <ele>559.28</ele>
        <time>2023-04-18T13:30:26.672Z</time>
      </trkpt>
      <trkpt lat="44.5944" lon="2.62756">
        <ele>562.28</ele>
        <time>2023-04-18T13:30:36.673Z</time>
      </trkpt>
      <trkpt lat="44.5945" lon="2.62745">
        <ele>562.28</ele>
        <time>2023-04-18T13:30:47.082Z</time>
      </trkpt>
      <trkpt lat="44.59458" lon="2.62738">
        <ele>562.29</ele>
        <time>2023-04-18T13:30:57.423Z</time>
      </trkpt>
      <trkpt lat="44.59466" lon="2.62728">
        <ele>563.28</ele>
        <time>2023-04-18T13:31:07.443Z</time>
      </trkpt>
      <trkpt lat="44.59473" lon="2.62723">
        <ele>563.28</ele>
        <time>2023-04-18T13:31:17.862Z</time>
      </trkpt>
      <trkpt lat="44.59484" lon="2.6272">
        <ele>560.35</ele>
        <time>2023-04-18T13:31:28.333Z</time>
      </trkpt>
      <trkpt lat="44.59492" lon="2.62725">
        <ele>561.28</ele>
        <time>2023-04-18T13:31:38.854Z</time>
      </trkpt>
      <trkpt lat="44.59498" lon="2.62731">
        <ele>561.28</ele>
        <time>2023-04-18T13:31:49.183Z</time>
      </trkpt>
      <trkpt lat="44.59499" lon="2.6273">
        <ele>561.28</ele>
        <time>2023-04-18T13:31:59.204Z</time>
      </trkpt>
      <trkpt lat="44.595" lon="2.62731">
        <ele>562.27</ele>
        <time>2023-04-18T13:32:16.572Z</time>
      </trkpt>
      <trkpt lat="44.59506" lon="2.62735">
        <ele>562.53</ele>
        <time>2023-04-18T13:32:26.585Z</time>
      </trkpt>
      <trkpt lat="44.59513" lon="2.62739">
        <ele>562.28</ele>
        <time>2023-04-18T13:32:37.094Z</time>
      </trkpt>
      <trkpt lat="44.59525" lon="2.62748">
        <ele>560.53</ele>
        <time>2023-04-18T13:32:47.596Z</time>
      </trkpt>
      <trkpt lat="44.59535" lon="2.62752">
        <ele>561.28</ele>
        <time>2023-04-18T13:32:58.383Z</time>
      </trkpt>
      <trkpt lat="44.59542" lon="2.62753">
        <ele>562.28</ele>
        <time>2023-04-18T13:33:08.543Z</time>
      </trkpt>
      <trkpt lat="44.59546" lon="2.62751">
        <ele>564.28</ele>
        <time>2023-04-18T13:33:19.543Z</time>
      </trkpt>
      <trkpt lat="44.59547" lon="2.62748">
        <ele>562.28</ele>
        <time>2023-04-18T13:33:30.494Z</time>
      </trkpt>
      <trkpt lat="44.59549" lon="2.62748">
        <ele>561.28</ele>
        <time>2023-04-18T13:33:41.443Z</time>
      </trkpt>
      <trkpt lat="44.59551" lon="2.62751">
        <ele>564.28</ele>
        <time>2023-04-18T13:33:51.933Z</time>
      </trkpt>
      <trkpt lat="44.59552" lon="2.62752">
        <ele>565.28</ele>
        <time>2023-04-18T13:34:02.592Z</time>
      </trkpt>
      <trkpt lat="44.59553" lon="2.62751">
        <ele>565.28</ele>
        <time>2023-04-18T13:34:16.602Z</time>
      </trkpt>
      <trkpt lat="44.59554" lon="2.6275">
        <ele>564.04</ele>
        <time>2023-04-18T13:34:36.575Z</time>
      </trkpt>
      <trkpt lat="44.59554" lon="2.62749">
        <ele>566.2</ele>
        <time>2023-04-18T13:35:07.174Z</time>
      </trkpt>
      <trkpt lat="44.59551" lon="2.62746">
        <ele>565.3</ele>
        <time>2023-04-18T13:35:17.553Z</time>
      </trkpt>
      <trkpt lat="44.5955" lon="2.62742">
        <ele>563.28</ele>
        <time>2023-04-18T13:35:28.604Z</time>
      </trkpt>
      <trkpt lat="44.5955" lon="2.62741">
        <ele>563.28</ele>
        <time>2023-04-18T13:35:48.607Z</time>
      </trkpt>
      <trkpt lat="44.59548" lon="2.62739">
        <ele>562.35</ele>
        <time>2023-04-18T13:36:12.601Z</time>
      </trkpt>
      <trkpt lat="44.59546" lon="2.62739">
        <ele>561.53</ele>
        <time>2023-04-18T13:36:23.589Z</time>
      </trkpt>
      <trkpt lat="44.59546" lon="2.62741">
        <ele>563.22</ele>
        <time>2023-04-18T13:37:09.523Z</time>
      </trkpt>
      <trkpt lat="44.59547" lon="2.62744">
        <ele>563.28</ele>
        <time>2023-04-18T13:37:20.114Z</time>
      </trkpt>
      <trkpt lat="44.59549" lon="2.6275">
        <ele>561.3</ele>
        <time>2023-04-18T13:37:30.642Z</time>
      </trkpt>
      <trkpt lat="44.59544" lon="2.62755">
        <ele>561.3</ele>
        <time>2023-04-18T13:37:41.194Z</time>
      </trkpt>
      <trkpt lat="44.59543" lon="2.62754">
        <ele>560.53</ele>
        <time>2023-04-18T13:37:55.542Z</time>
      </trkpt>
      <trkpt lat="44.59538" lon="2.62752">
        <ele>560.28</ele>
        <time>2023-04-18T13:38:05.573Z</time>
      </trkpt>
      <trkpt lat="44.59529" lon="2.62749">
        <ele>559.35</ele>
        <time>2023-04-18T13:38:15.964Z</time>
      </trkpt>
      <trkpt lat="44.59519" lon="2.62743">
        <ele>562.27</ele>
        <time>2023-04-18T13:38:26.514Z</time>
      </trkpt>
      <trkpt lat="44.59512" lon="2.62737">
        <ele>563.28</ele>
        <time>2023-04-18T13:38:36.883Z</time>
      </trkpt>
      <trkpt lat="44.59502" lon="2.62733">
        <ele>563.28</ele>
        <time>2023-04-18T13:38:47.213Z</time>
      </trkpt>
      <trkpt lat="44.59503" lon="2.6274">
        <ele>564.52</ele>
        <time>2023-04-18T13:38:57.583Z</time>
      </trkpt>
      <trkpt lat="44.59508" lon="2.62752">
        <ele>566.28</ele>
        <time>2023-04-18T13:39:08.584Z</time>
      </trkpt>
      <trkpt lat="44.59512" lon="2.6276">
        <ele>568.28</ele>
        <time>2023-04-18T13:39:19.043Z</time>
      </trkpt>
      <trkpt lat="44.59517" lon="2.62768">
        <ele>572.28</ele>
        <time>2023-04-18T13:39:29.473Z</time>
      </trkpt>
      <trkpt lat="44.59522" lon="2.62776">
        <ele>575.28</ele>
        <time>2023-04-18T13:39:40.013Z</time>
      </trkpt>
      <trkpt lat="44.59529" lon="2.62786">
        <ele>576.22</ele>
        <time>2023-04-18T13:39:50.393Z</time>
      </trkpt>
      <trkpt lat="44.59535" lon="2.62793">
        <ele>577.3</ele>
        <time>2023-04-18T13:40:00.414Z</time>
      </trkpt>
      <trkpt lat="44.59541" lon="2.62799">
        <ele>578.28</ele>
        <time>2023-04-18T13:40:10.762Z</time>
      </trkpt>
      <trkpt lat="44.59546" lon="2.62803">
        <ele>580.28</ele>
        <time>2023-04-18T13:40:21.213Z</time>
      </trkpt>
      <trkpt lat="44.59552" lon="2.62808">
        <ele>582.27</ele>
        <time>2023-04-18T13:40:31.234Z</time>
      </trkpt>
      <trkpt lat="44.59559" lon="2.62816">
        <ele>582.28</ele>
        <time>2023-04-18T13:40:42.234Z</time>
      </trkpt>
      <trkpt lat="44.59563" lon="2.62824">
        <ele>580.3</ele>
        <time>2023-04-18T13:40:52.594Z</time>
      </trkpt>
      <trkpt lat="44.5957" lon="2.62834">
        <ele>583.22</ele>
        <time>2023-04-18T13:41:03.502Z</time>
      </trkpt>
      <trkpt lat="44.59573" lon="2.62841">
        <ele>584.28</ele>
        <time>2023-04-18T13:41:13.894Z</time>
      </trkpt>
      <trkpt lat="44.59576" lon="2.62851">
        <ele>585.28</ele>
        <time>2023-04-18T13:41:24.353Z</time>
      </trkpt>
      <trkpt lat="44.59579" lon="2.62868">
        <ele>587.28</ele>
        <time>2023-04-18T13:41:35.444Z</time>
      </trkpt>
      <trkpt lat="44.59584" lon="2.62879">
        <ele>587.28</ele>
        <time>2023-04-18T13:41:45.813Z</time>
      </trkpt>
      <trkpt lat="44.59593" lon="2.62882">
        <ele>586.28</ele>
        <time>2023-04-18T13:41:56.612Z</time>
      </trkpt>
      <trkpt lat="44.59605" lon="2.62872">
        <ele>586.28</ele>
        <time>2023-04-18T13:42:07.483Z</time>
      </trkpt>
      <trkpt lat="44.59613" lon="2.62861">
        <ele>585.28</ele>
        <time>2023-04-18T13:42:17.934Z</time>
      </trkpt>
      <trkpt lat="44.59622" lon="2.62853">
        <ele>586.28</ele>
        <time>2023-04-18T13:42:28.423Z</time>
      </trkpt>
      <trkpt lat="44.59633" lon="2.6285">
        <ele>587.28</ele>
        <time>2023-04-18T13:42:38.783Z</time>
      </trkpt>
      <trkpt lat="44.59645" lon="2.62849">
        <ele>587.28</ele>
        <time>2023-04-18T13:42:49.203Z</time>
      </trkpt>
      <trkpt lat="44.59657" lon="2.62848">
        <ele>587.28</ele>
        <time>2023-04-18T13:42:59.673Z</time>
      </trkpt>
      <trkpt lat="44.59669" lon="2.62846">
        <ele>587.28</ele>
        <time>2023-04-18T13:43:10.612Z</time>
      </trkpt>
      <trkpt lat="44.5968" lon="2.62845">
        <ele>585.28</ele>
        <time>2023-04-18T13:43:21.163Z</time>
      </trkpt>
      <trkpt lat="44.59691" lon="2.62844">
        <ele>584.3</ele>
        <time>2023-04-18T13:43:31.605Z</time>
      </trkpt>
      <trkpt lat="44.59699" lon="2.62849">
        <ele>584.48</ele>
        <time>2023-04-18T13:43:42.603Z</time>
      </trkpt>
      <trkpt lat="44.59698" lon="2.62849">
        <ele>584.28</ele>
        <time>2023-04-18T13:43:53.584Z</time>
      </trkpt>
      <trkpt lat="44.59699" lon="2.62848">
        <ele>583.28</ele>
        <time>2023-04-18T13:44:04.544Z</time>
      </trkpt>
      <trkpt lat="44.597" lon="2.62847">
        <ele>584.26</ele>
        <time>2023-04-18T13:44:37.585Z</time>
      </trkpt>
      <trkpt lat="44.597" lon="2.62847">
        <ele>584.28</ele>
        <time>2023-04-18T13:44:49.601Z</time>
      </trkpt>
      <trkpt lat="44.59699" lon="2.62847">
        <ele>585.28</ele>
        <time>2023-04-18T13:45:13.586Z</time>
      </trkpt>
      <trkpt lat="44.59698" lon="2.62847">
        <ele>587.28</ele>
        <time>2023-04-18T13:45:34.963Z</time>
      </trkpt>
      <trkpt lat="44.59697" lon="2.62847">
        <ele>587.28</ele>
        <time>2023-04-18T13:46:00.280Z</time>
      </trkpt>
      <trkpt lat="44.59699" lon="2.62846">
        <ele>586.28</ele>
        <time>2023-04-18T13:46:21.292Z</time>
      </trkpt>
      <trkpt lat="44.59701" lon="2.62827">
        <ele>585.28</ele>
        <time>2023-04-18T13:46:31.606Z</time>
      </trkpt>
      <trkpt lat="44.59701" lon="2.62808">
        <ele>585.3</ele>
        <time>2023-04-18T13:46:41.811Z</time>
      </trkpt>
      <trkpt lat="44.59705" lon="2.6279">
        <ele>584.28</ele>
        <time>2023-04-18T13:46:52.033Z</time>
      </trkpt>
      <trkpt lat="44.59712" lon="2.62774">
        <ele>584.28</ele>
        <time>2023-04-18T13:47:02.323Z</time>
      </trkpt>
      <trkpt lat="44.59718" lon="2.62757">
        <ele>583.3</ele>
        <time>2023-04-18T13:47:12.653Z</time>
      </trkpt>
      <trkpt lat="44.59724" lon="2.62743">
        <ele>584.27</ele>
        <time>2023-04-18T13:47:23.105Z</time>
      </trkpt>
      <trkpt lat="44.59727" lon="2.62729">
        <ele>584.28</ele>
        <time>2023-04-18T13:47:33.513Z</time>
      </trkpt>
      <trkpt lat="44.59731" lon="2.62714">
        <ele>584.28</ele>
        <time>2023-04-18T13:47:43.853Z</time>
      </trkpt>
      <trkpt lat="44.59736" lon="2.62698">
        <ele>584.28</ele>
        <time>2023-04-18T13:47:54.283Z</time>
      </trkpt>
      <trkpt lat="44.59742" lon="2.62681">
        <ele>581.29</ele>
        <time>2023-04-18T13:48:04.632Z</time>
      </trkpt>
      <trkpt lat="44.59748" lon="2.62663">
        <ele>582.28</ele>
        <time>2023-04-18T13:48:14.943Z</time>
      </trkpt>
      <trkpt lat="44.59755" lon="2.62649">
        <ele>579.35</ele>
        <time>2023-04-18T13:48:25.213Z</time>
      </trkpt>
      <trkpt lat="44.59763" lon="2.62631">
        <ele>578.28</ele>
        <time>2023-04-18T13:48:35.573Z</time>
      </trkpt>
      <trkpt lat="44.59771" lon="2.62617">
        <ele>576.29</ele>
        <time>2023-04-18T13:48:45.933Z</time>
      </trkpt>
      <trkpt lat="44.59778" lon="2.62602">
        <ele>574.28</ele>
        <time>2023-04-18T13:48:56.282Z</time>
      </trkpt>
      <trkpt lat="44.59784" lon="2.62592">
        <ele>573.3</ele>
        <time>2023-04-18T13:49:06.692Z</time>
      </trkpt>
      <trkpt lat="44.59792" lon="2.62579">
        <ele>571.3</ele>
        <time>2023-04-18T13:49:17.034Z</time>
      </trkpt>
      <trkpt lat="44.59799" lon="2.62565">
        <ele>570.29</ele>
        <time>2023-04-18T13:49:27.234Z</time>
      </trkpt>
      <trkpt lat="44.59807" lon="2.62552">
        <ele>569.29</ele>
        <time>2023-04-18T13:49:37.302Z</time>
      </trkpt>
      <trkpt lat="44.59812" lon="2.62548">
        <ele>568.29</ele>
        <time>2023-04-18T13:49:47.703Z</time>
      </trkpt>
      <trkpt lat="44.59814" lon="2.62547">
        <ele>565.29</ele>
        <time>2023-04-18T13:49:58.244Z</time>
      </trkpt>
      <trkpt lat="44.59823" lon="2.62545">
        <ele>566.28</ele>
        <time>2023-04-18T13:50:08.253Z</time>
      </trkpt>
      <trkpt lat="44.59836" lon="2.6254">
        <ele>566.54</ele>
        <time>2023-04-18T13:50:18.594Z</time>
      </trkpt>
      <trkpt lat="44.59847" lon="2.6253">
        <ele>566.29</ele>
        <time>2023-04-18T13:50:28.954Z</time>
      </trkpt>
      <trkpt lat="44.59857" lon="2.62524">
        <ele>566.34</ele>
        <time>2023-04-18T13:50:38.973Z</time>
      </trkpt>
      <trkpt lat="44.59868" lon="2.62526">
        <ele>566.29</ele>
        <time>2023-04-18T13:50:49.263Z</time>
      </trkpt>
      <trkpt lat="44.59869" lon="2.62531">
        <ele>565.29</ele>
        <time>2023-04-18T13:51:00.223Z</time>
      </trkpt>
      <trkpt lat="44.59873" lon="2.62539">
        <ele>564.29</ele>
        <time>2023-04-18T13:51:10.672Z</time>
      </trkpt>
      <trkpt lat="44.5988" lon="2.62547">
        <ele>562.29</ele>
        <time>2023-04-18T13:51:21.043Z</time>
      </trkpt>
      <trkpt lat="44.59885" lon="2.6255">
        <ele>561.04</ele>
        <time>2023-04-18T13:51:31.523Z</time>
      </trkpt>
      <trkpt lat="44.59891" lon="2.62555">
        <ele>560.3</ele>
        <time>2023-04-18T13:51:41.712Z</time>
      </trkpt>
      <trkpt lat="44.59901" lon="2.62563">
        <ele>557.54</ele>
        <time>2023-04-18T13:51:52.194Z</time>
      </trkpt>
      <trkpt lat="44.59907" lon="2.62571">
        <ele>557.03</ele>
        <time>2023-04-18T13:52:02.533Z</time>
      </trkpt>
      <trkpt lat="44.59913" lon="2.62575">
        <ele>556.28</ele>
        <time>2023-04-18T13:52:12.994Z</time>
      </trkpt>
      <trkpt lat="44.5992" lon="2.62582">
        <ele>553.28</ele>
        <time>2023-04-18T13:52:23.454Z</time>
      </trkpt>
      <trkpt lat="44.5993" lon="2.6259">
        <ele>548.3</ele>
        <time>2023-04-18T13:52:33.782Z</time>
      </trkpt>
      <trkpt lat="44.59936" lon="2.626">
        <ele>549.28</ele>
        <time>2023-04-18T13:52:44.304Z</time>
      </trkpt>
      <trkpt lat="44.59943" lon="2.6261">
        <ele>546.41</ele>
        <time>2023-04-18T13:52:55.384Z</time>
      </trkpt>
      <trkpt lat="44.59945" lon="2.62611">
        <ele>547.27</ele>
        <time>2023-04-18T13:53:05.833Z</time>
      </trkpt>
      <trkpt lat="44.59946" lon="2.62614">
        <ele>547.28</ele>
        <time>2023-04-18T13:53:16.373Z</time>
      </trkpt>
      <trkpt lat="44.59947" lon="2.62614">
        <ele>544.28</ele>
        <time>2023-04-18T13:53:27.274Z</time>
      </trkpt>
      <trkpt lat="44.59948" lon="2.62615">
        <ele>544.24</ele>
        <time>2023-04-18T13:54:16.122Z</time>
      </trkpt>
      <trkpt lat="44.5995" lon="2.62616">
        <ele>544.28</ele>
        <time>2023-04-18T13:54:26.514Z</time>
      </trkpt>
      <trkpt lat="44.5995" lon="2.62617">
        <ele>543.53</ele>
        <time>2023-04-18T13:54:39.763Z</time>
      </trkpt>
      <trkpt lat="44.59958" lon="2.62623">
        <ele>544.03</ele>
        <time>2023-04-18T13:54:50.606Z</time>
      </trkpt>
      <trkpt lat="44.59969" lon="2.62628">
        <ele>542.24</ele>
        <time>2023-04-18T13:55:01.093Z</time>
      </trkpt>
      <trkpt lat="44.5998" lon="2.6263">
        <ele>543.22</ele>
        <time>2023-04-18T13:55:11.494Z</time>
      </trkpt>
      <trkpt lat="44.59993" lon="2.62631">
        <ele>545.27</ele>
        <time>2023-04-18T13:55:22.523Z</time>
      </trkpt>
      <trkpt lat="44.60005" lon="2.62636">
        <ele>549.03</ele>
        <time>2023-04-18T13:55:33.003Z</time>
      </trkpt>
      <trkpt lat="44.60013" lon="2.62639">
        <ele>551.28</ele>
        <time>2023-04-18T13:55:43.503Z</time>
      </trkpt>
      <trkpt lat="44.60021" lon="2.62644">
        <ele>552.28</ele>
        <time>2023-04-18T13:55:53.813Z</time>
      </trkpt>
      <trkpt lat="44.6003" lon="2.62648">
        <ele>555.22</ele>
        <time>2023-04-18T13:56:04.134Z</time>
      </trkpt>
      <trkpt lat="44.60039" lon="2.62633">
        <ele>557.03</ele>
        <time>2023-04-18T13:56:14.454Z</time>
      </trkpt>
      <trkpt lat="44.60044" lon="2.62618">
        <ele>555.53</ele>
        <time>2023-04-18T13:56:24.953Z</time>
      </trkpt>
      <trkpt lat="44.60051" lon="2.62614">
        <ele>554.28</ele>
        <time>2023-04-18T13:56:35.263Z</time>
      </trkpt>
      <trkpt lat="44.60062" lon="2.62621">
        <ele>555.27</ele>
        <time>2023-04-18T13:56:45.783Z</time>
      </trkpt>
      <trkpt lat="44.60063" lon="2.62637">
        <ele>556.22</ele>
        <time>2023-04-18T13:56:56.302Z</time>
      </trkpt>
      <trkpt lat="44.60063" lon="2.62651">
        <ele>557.3</ele>
        <time>2023-04-18T13:57:06.814Z</time>
      </trkpt>
      <trkpt lat="44.60068" lon="2.62667">
        <ele>557.35</ele>
        <time>2023-04-18T13:57:17.224Z</time>
      </trkpt>
      <trkpt lat="44.60078" lon="2.62666">
        <ele>555.28</ele>
        <time>2023-04-18T13:57:27.513Z</time>
      </trkpt>
      <trkpt lat="44.60088" lon="2.62657">
        <ele>557.28</ele>
        <time>2023-04-18T13:57:38.522Z</time>
      </trkpt>
      <trkpt lat="44.60098" lon="2.6265">
        <ele>559.28</ele>
        <time>2023-04-18T13:57:48.553Z</time>
      </trkpt>
      <trkpt lat="44.60107" lon="2.62641">
        <ele>560.28</ele>
        <time>2023-04-18T13:57:58.943Z</time>
      </trkpt>
      <trkpt lat="44.60111" lon="2.62637">
        <ele>561.28</ele>
        <time>2023-04-18T13:58:09.464Z</time>
      </trkpt>
      <trkpt lat="44.60111" lon="2.62636">
        <ele>562.28</ele>
        <time>2023-04-18T13:58:42.364Z</time>
      </trkpt>
      <trkpt lat="44.60123" lon="2.6263">
        <ele>562.28</ele>
        <time>2023-04-18T13:58:52.803Z</time>
      </trkpt>
      <trkpt lat="44.60132" lon="2.62618">
        <ele>565.97</ele>
        <time>2023-04-18T13:59:03.273Z</time>
      </trkpt>
      <trkpt lat="44.60142" lon="2.62608">
        <ele>567.28</ele>
        <time>2023-04-18T13:59:13.693Z</time>
      </trkpt>
      <trkpt lat="44.60153" lon="2.62601">
        <ele>568.28</ele>
        <time>2023-04-18T13:59:24.112Z</time>
      </trkpt>
      <trkpt lat="44.60164" lon="2.62594">
        <ele>569.29</ele>
        <time>2023-04-18T13:59:34.433Z</time>
      </trkpt>
      <trkpt lat="44.60175" lon="2.6259">
        <ele>570.03</ele>
        <time>2023-04-18T13:59:44.483Z</time>
      </trkpt>
      <trkpt lat="44.60186" lon="2.62591">
        <ele>571.27</ele>
        <time>2023-04-18T13:59:54.964Z</time>
      </trkpt>
      <trkpt lat="44.60198" lon="2.62591">
        <ele>573.28</ele>
        <time>2023-04-18T14:00:05.273Z</time>
      </trkpt>
      <trkpt lat="44.60209" lon="2.62593">
        <ele>574.28</ele>
        <time>2023-04-18T14:00:15.693Z</time>
      </trkpt>
      <trkpt lat="44.60221" lon="2.62595">
        <ele>574.3</ele>
        <time>2023-04-18T14:00:26.103Z</time>
      </trkpt>
      <trkpt lat="44.60232" lon="2.62596">
        <ele>576.05</ele>
        <time>2023-04-18T14:00:36.577Z</time>
      </trkpt>
      <trkpt lat="44.60243" lon="2.62594">
        <ele>576.3</ele>
        <time>2023-04-18T14:00:46.590Z</time>
      </trkpt>
      <trkpt lat="44.60254" lon="2.62592">
        <ele>577.28</ele>
        <time>2023-04-18T14:00:57.553Z</time>
      </trkpt>
      <trkpt lat="44.60264" lon="2.62589">
        <ele>578.28</ele>
        <time>2023-04-18T14:01:08.001Z</time>
      </trkpt>
      <trkpt lat="44.60272" lon="2.62585">
        <ele>580.28</ele>
        <time>2023-04-18T14:01:18.342Z</time>
      </trkpt>
      <trkpt lat="44.60283" lon="2.62585">
        <ele>580.28</ele>
        <time>2023-04-18T14:01:28.662Z</time>
      </trkpt>
      <trkpt lat="44.60291" lon="2.62584">
        <ele>581.28</ele>
        <time>2023-04-18T14:01:39.033Z</time>
      </trkpt>
      <trkpt lat="44.60295" lon="2.62585">
        <ele>581.28</ele>
        <time>2023-04-18T14:01:49.533Z</time>
      </trkpt>
      <trkpt lat="44.60298" lon="2.62587">
        <ele>584.27</ele>
        <time>2023-04-18T14:01:59.533Z</time>
      </trkpt>
      <trkpt lat="44.60302" lon="2.62594">
        <ele>587.21</ele>
        <time>2023-04-18T14:02:10.523Z</time>
      </trkpt>
      <trkpt lat="44.60313" lon="2.62606">
        <ele>588.24</ele>
        <time>2023-04-18T14:02:21.343Z</time>
      </trkpt>
      <trkpt lat="44.6032" lon="2.62618">
        <ele>591.28</ele>
        <time>2023-04-18T14:02:31.794Z</time>
      </trkpt>
      <trkpt lat="44.60321" lon="2.62633">
        <ele>593.28</ele>
        <time>2023-04-18T14:02:42.203Z</time>
      </trkpt>
      <trkpt lat="44.60326" lon="2.62647">
        <ele>596.03</ele>
        <time>2023-04-18T14:02:52.462Z</time>
      </trkpt>
      <trkpt lat="44.60326" lon="2.62664">
        <ele>596.29</ele>
        <time>2023-04-18T14:03:02.982Z</time>
      </trkpt>
      <trkpt lat="44.6033" lon="2.62682">
        <ele>595.28</ele>
        <time>2023-04-18T14:03:13.403Z</time>
      </trkpt>
      <trkpt lat="44.60331" lon="2.62699">
        <ele>598.26</ele>
        <time>2023-04-18T14:03:24.274Z</time>
      </trkpt>
      <trkpt lat="44.6033" lon="2.62713">
        <ele>601.28</ele>
        <time>2023-04-18T14:03:34.772Z</time>
      </trkpt>
      <trkpt lat="44.60332" lon="2.62726">
        <ele>604.26</ele>
        <time>2023-04-18T14:03:45.274Z</time>
      </trkpt>
      <trkpt lat="44.60334" lon="2.62734">
        <ele>603.34</ele>
        <time>2023-04-18T14:03:56.202Z</time>
      </trkpt>
      <trkpt lat="44.60336" lon="2.62736">
        <ele>603.28</ele>
        <time>2023-04-18T14:04:06.214Z</time>
      </trkpt>
      <trkpt lat="44.60338" lon="2.62738">
        <ele>600.3</ele>
        <time>2023-04-18T14:04:16.693Z</time>
      </trkpt>
      <trkpt lat="44.60339" lon="2.6274">
        <ele>601.28</ele>
        <time>2023-04-18T14:04:27.263Z</time>
      </trkpt>
      <trkpt lat="44.6034" lon="2.6274">
        <ele>598.53</ele>
        <time>2023-04-18T14:06:04.598Z</time>
      </trkpt>
      <trkpt lat="44.6034" lon="2.62741">
        <ele>596.3</ele>
        <time>2023-04-18T14:06:19.596Z</time>
      </trkpt>
      <trkpt lat="44.60338" lon="2.62742">
        <ele>599.23</ele>
        <time>2023-04-18T14:06:29.598Z</time>
      </trkpt>
      <trkpt lat="44.60332" lon="2.62755">
        <ele>599.28</ele>
        <time>2023-04-18T14:06:40.574Z</time>
      </trkpt>
      <trkpt lat="44.60328" lon="2.62768">
        <ele>600.03</ele>
        <time>2023-04-18T14:06:50.591Z</time>
      </trkpt>
      <trkpt lat="44.60325" lon="2.62781">
        <ele>603.26</ele>
        <time>2023-04-18T14:07:00.596Z</time>
      </trkpt>
      <trkpt lat="44.60326" lon="2.62796">
        <ele>604.28</ele>
        <time>2023-04-18T14:07:10.602Z</time>
      </trkpt>
      <trkpt lat="44.60324" lon="2.62811">
        <ele>604.53</ele>
        <time>2023-04-18T14:07:21.599Z</time>
      </trkpt>
      <trkpt lat="44.60324" lon="2.62826">
        <ele>603.28</ele>
        <time>2023-04-18T14:07:31.607Z</time>
      </trkpt>
      <trkpt lat="44.60322" lon="2.62843">
        <ele>603.26</ele>
        <time>2023-04-18T14:07:41.610Z</time>
      </trkpt>
      <trkpt lat="44.60323" lon="2.62858">
        <ele>605.27</ele>
        <time>2023-04-18T14:07:52.598Z</time>
      </trkpt>
      <trkpt lat="44.60323" lon="2.62873">
        <ele>605.28</ele>
        <time>2023-04-18T14:08:02.601Z</time>
      </trkpt>
      <trkpt lat="44.60326" lon="2.62885">
        <ele>606.29</ele>
        <time>2023-04-18T14:08:13.597Z</time>
      </trkpt>
      <trkpt lat="44.60327" lon="2.629">
        <ele>607.46</ele>
        <time>2023-04-18T14:08:23.603Z</time>
      </trkpt>
      <trkpt lat="44.60329" lon="2.62917">
        <ele>608.28</ele>
        <time>2023-04-18T14:08:34.599Z</time>
      </trkpt>
      <trkpt lat="44.60328" lon="2.62933">
        <ele>609.03</ele>
        <time>2023-04-18T14:08:45.598Z</time>
      </trkpt>
      <trkpt lat="44.60325" lon="2.62948">
        <ele>609.28</ele>
        <time>2023-04-18T14:08:56.596Z</time>
      </trkpt>
      <trkpt lat="44.60321" lon="2.62962">
        <ele>610.28</ele>
        <time>2023-04-18T14:09:06.601Z</time>
      </trkpt>
      <trkpt lat="44.60317" lon="2.62977">
        <ele>611.03</ele>
        <time>2023-04-18T14:09:17.591Z</time>
      </trkpt>
      <trkpt lat="44.60313" lon="2.62991">
        <ele>611.27</ele>
        <time>2023-04-18T14:09:28.576Z</time>
      </trkpt>
      <trkpt lat="44.6031" lon="2.63005">
        <ele>612.27</ele>
        <time>2023-04-18T14:09:38.580Z</time>
      </trkpt>
      <trkpt lat="44.60308" lon="2.63014">
        <ele>615.27</ele>
        <time>2023-04-18T14:09:48.594Z</time>
      </trkpt>
      <trkpt lat="44.60307" lon="2.63028">
        <ele>615.27</ele>
        <time>2023-04-18T14:09:58.602Z</time>
      </trkpt>
      <trkpt lat="44.60305" lon="2.63045">
        <ele>616.27</ele>
        <time>2023-04-18T14:10:09.596Z</time>
      </trkpt>
      <trkpt lat="44.60303" lon="2.63059">
        <ele>617.03</ele>
        <time>2023-04-18T14:10:19.605Z</time>
      </trkpt>
      <trkpt lat="44.60299" lon="2.63071">
        <ele>617.27</ele>
        <time>2023-04-18T14:10:30.598Z</time>
      </trkpt>
      <trkpt lat="44.60295" lon="2.63085">
        <ele>618.27</ele>
        <time>2023-04-18T14:10:41.602Z</time>
      </trkpt>
      <trkpt lat="44.60289" lon="2.63099">
        <ele>618.27</ele>
        <time>2023-04-18T14:10:52.597Z</time>
      </trkpt>
      <trkpt lat="44.60282" lon="2.63113">
        <ele>619.27</ele>
        <time>2023-04-18T14:11:03.578Z</time>
      </trkpt>
      <trkpt lat="44.60276" lon="2.63126">
        <ele>620.27</ele>
        <time>2023-04-18T14:11:13.593Z</time>
      </trkpt>
      <trkpt lat="44.60273" lon="2.63138">
        <ele>620.27</ele>
        <time>2023-04-18T14:11:24.600Z</time>
      </trkpt>
      <trkpt lat="44.6027" lon="2.63137">
        <ele>621.27</ele>
        <time>2023-04-18T14:11:35.606Z</time>
      </trkpt>
      <trkpt lat="44.60271" lon="2.63137">
        <ele>621.27</ele>
        <time>2023-04-18T14:12:15.603Z</time>
      </trkpt>
      <trkpt lat="44.60269" lon="2.63146">
        <ele>623.27</ele>
        <time>2023-04-18T14:12:26.599Z</time>
      </trkpt>
      <trkpt lat="44.60262" lon="2.63159">
        <ele>623.21</ele>
        <time>2023-04-18T14:12:36.600Z</time>
      </trkpt>
      <trkpt lat="44.60256" lon="2.63172">
        <ele>622.27</ele>
        <time>2023-04-18T14:12:46.606Z</time>
      </trkpt>
      <trkpt lat="44.6025" lon="2.63189">
        <ele>623.02</ele>
        <time>2023-04-18T14:12:57.592Z</time>
      </trkpt>
      <trkpt lat="44.60243" lon="2.63203">
        <ele>624.27</ele>
        <time>2023-04-18T14:13:07.597Z</time>
      </trkpt>
      <trkpt lat="44.60238" lon="2.63216">
        <ele>627.27</ele>
        <time>2023-04-18T14:13:18.588Z</time>
      </trkpt>
      <trkpt lat="44.60237" lon="2.63231">
        <ele>629.27</ele>
        <time>2023-04-18T14:13:28.599Z</time>
      </trkpt>
      <trkpt lat="44.60236" lon="2.63247">
        <ele>632.21</ele>
        <time>2023-04-18T14:13:39.592Z</time>
      </trkpt>
      <trkpt lat="44.60241" lon="2.63264">
        <ele>635.01</ele>
        <time>2023-04-18T14:13:49.593Z</time>
      </trkpt>
      <trkpt lat="44.60245" lon="2.63277">
        <ele>636.25</ele>
        <time>2023-04-18T14:13:59.598Z</time>
      </trkpt>
      <trkpt lat="44.60249" lon="2.63294">
        <ele>637.27</ele>
        <time>2023-04-18T14:14:10.533Z</time>
      </trkpt>
      <trkpt lat="44.60251" lon="2.63314">
        <ele>636.27</ele>
        <time>2023-04-18T14:14:21.034Z</time>
      </trkpt>
      <trkpt lat="44.60249" lon="2.63328">
        <ele>640</ele>
        <time>2023-04-18T14:14:31.434Z</time>
      </trkpt>
      <trkpt lat="44.60245" lon="2.63344">
        <ele>638.33</ele>
        <time>2023-04-18T14:14:41.745Z</time>
      </trkpt>
      <trkpt lat="44.60243" lon="2.63364">
        <ele>639.27</ele>
        <time>2023-04-18T14:14:52.254Z</time>
      </trkpt>
      <trkpt lat="44.60245" lon="2.63386">
        <ele>638.5</ele>
        <time>2023-04-18T14:15:02.694Z</time>
      </trkpt>
      <trkpt lat="44.60249" lon="2.63406">
        <ele>637.33</ele>
        <time>2023-04-18T14:15:13.115Z</time>
      </trkpt>
      <trkpt lat="44.6025" lon="2.63423">
        <ele>638.25</ele>
        <time>2023-04-18T14:15:23.588Z</time>
      </trkpt>
      <trkpt lat="44.60252" lon="2.6344">
        <ele>637.26</ele>
        <time>2023-04-18T14:15:34.115Z</time>
      </trkpt>
      <trkpt lat="44.6025" lon="2.63457">
        <ele>636.27</ele>
        <time>2023-04-18T14:15:44.575Z</time>
      </trkpt>
      <trkpt lat="44.6025" lon="2.63475">
        <ele>637.27</ele>
        <time>2023-04-18T14:15:55.114Z</time>
      </trkpt>
      <trkpt lat="44.60247" lon="2.63492">
        <ele>638.27</ele>
        <time>2023-04-18T14:16:05.604Z</time>
      </trkpt>
      <trkpt lat="44.60242" lon="2.63507">
        <ele>639.27</ele>
        <time>2023-04-18T14:16:16.105Z</time>
      </trkpt>
      <trkpt lat="44.60239" lon="2.63521">
        <ele>642.02</ele>
        <time>2023-04-18T14:16:26.600Z</time>
      </trkpt>
      <trkpt lat="44.60245" lon="2.63533">
        <ele>644.26</ele>
        <time>2023-04-18T14:16:37.600Z</time>
      </trkpt>
      <trkpt lat="44.60255" lon="2.63542">
        <ele>645.26</ele>
        <time>2023-04-18T14:16:48.603Z</time>
      </trkpt>
      <trkpt lat="44.60264" lon="2.63551">
        <ele>646.27</ele>
        <time>2023-04-18T14:16:58.613Z</time>
      </trkpt>
      <trkpt lat="44.60275" lon="2.63562">
        <ele>647.08</ele>
        <time>2023-04-18T14:17:09.596Z</time>
      </trkpt>
      <trkpt lat="44.60284" lon="2.63573">
        <ele>648.2</ele>
        <time>2023-04-18T14:17:19.601Z</time>
      </trkpt>
      <trkpt lat="44.60285" lon="2.63573">
        <ele>647.28</ele>
        <time>2023-04-18T14:18:13.875Z</time>
      </trkpt>
      <trkpt lat="44.60286" lon="2.63575">
        <ele>646.26</ele>
        <time>2023-04-18T14:18:24.635Z</time>
      </trkpt>
      <trkpt lat="44.60287" lon="2.63576">
        <ele>648.2</ele>
        <time>2023-04-18T14:18:45.614Z</time>
      </trkpt>
      <trkpt lat="44.60286" lon="2.63575">
        <ele>649.26</ele>
        <time>2023-04-18T14:18:56.135Z</time>
      </trkpt>
      <trkpt lat="44.60287" lon="2.63576">
        <ele>649.26</ele>
        <time>2023-04-18T14:19:22.525Z</time>
      </trkpt>
      <trkpt lat="44.60292" lon="2.63587">
        <ele>649.02</ele>
        <time>2023-04-18T14:19:32.984Z</time>
      </trkpt>
      <trkpt lat="44.603" lon="2.63602">
        <ele>649.26</ele>
        <time>2023-04-18T14:19:43.395Z</time>
      </trkpt>
      <trkpt lat="44.60305" lon="2.63617">
        <ele>650.26</ele>
        <time>2023-04-18T14:19:53.915Z</time>
      </trkpt>
      <trkpt lat="44.60308" lon="2.63635">
        <ele>650.26</ele>
        <time>2023-04-18T14:20:04.343Z</time>
      </trkpt>
      <trkpt lat="44.60313" lon="2.63652">
        <ele>650.26</ele>
        <time>2023-04-18T14:20:14.612Z</time>
      </trkpt>
      <trkpt lat="44.60316" lon="2.6367">
        <ele>651.26</ele>
        <time>2023-04-18T14:20:24.882Z</time>
      </trkpt>
      <trkpt lat="44.60318" lon="2.63688">
        <ele>650.51</ele>
        <time>2023-04-18T14:20:35.141Z</time>
      </trkpt>
      <trkpt lat="44.60319" lon="2.63706">
        <ele>651.2</ele>
        <time>2023-04-18T14:20:45.335Z</time>
      </trkpt>
      <trkpt lat="44.60323" lon="2.63723">
        <ele>650.51</ele>
        <time>2023-04-18T14:20:55.765Z</time>
      </trkpt>
      <trkpt lat="44.60325" lon="2.63741">
        <ele>651.26</ele>
        <time>2023-04-18T14:21:06.142Z</time>
      </trkpt>
      <trkpt lat="44.60329" lon="2.63758">
        <ele>651.26</ele>
        <time>2023-04-18T14:21:16.225Z</time>
      </trkpt>
      <trkpt lat="44.60335" lon="2.63776">
        <ele>652.26</ele>
        <time>2023-04-18T14:21:26.565Z</time>
      </trkpt>
      <trkpt lat="44.60342" lon="2.63792">
        <ele>652.26</ele>
        <time>2023-04-18T14:21:36.983Z</time>
      </trkpt>
      <trkpt lat="44.60351" lon="2.63803">
        <ele>653.2</ele>
        <time>2023-04-18T14:21:47.435Z</time>
      </trkpt>
      <trkpt lat="44.60352" lon="2.63806">
        <ele>654.26</ele>
        <time>2023-04-18T14:21:58.515Z</time>
      </trkpt>
      <trkpt lat="44.60352" lon="2.63805">
        <ele>654.26</ele>
        <time>2023-04-18T14:22:12.602Z</time>
      </trkpt>
      <trkpt lat="44.60353" lon="2.63808">
        <ele>654.26</ele>
        <time>2023-04-18T14:22:23.445Z</time>
      </trkpt>
      <trkpt lat="44.60354" lon="2.63809">
        <ele>655.26</ele>
        <time>2023-04-18T14:22:33.884Z</time>
      </trkpt>
      <trkpt lat="44.60365" lon="2.63823">
        <ele>654.26</ele>
        <time>2023-04-18T14:22:44.335Z</time>
      </trkpt>
      <trkpt lat="44.60366" lon="2.63823">
        <ele>654.49</ele>
        <time>2023-04-18T14:22:57.526Z</time>
      </trkpt>
      <trkpt lat="44.60371" lon="2.63835">
        <ele>654.26</ele>
        <time>2023-04-18T14:23:08.625Z</time>
      </trkpt>
      <trkpt lat="44.60375" lon="2.63843">
        <ele>654.26</ele>
        <time>2023-04-18T14:23:18.905Z</time>
      </trkpt>
      <trkpt lat="44.60384" lon="2.63858">
        <ele>654.26</ele>
        <time>2023-04-18T14:23:29.245Z</time>
      </trkpt>
      <trkpt lat="44.60391" lon="2.63873">
        <ele>653.26</ele>
        <time>2023-04-18T14:23:39.684Z</time>
      </trkpt>
      <trkpt lat="44.60396" lon="2.6389">
        <ele>653.26</ele>
        <time>2023-04-18T14:23:49.722Z</time>
      </trkpt>
      <trkpt lat="44.60402" lon="2.63908">
        <ele>654.26</ele>
        <time>2023-04-18T14:24:00.035Z</time>
      </trkpt>
      <trkpt lat="44.60408" lon="2.63923">
        <ele>655.26</ele>
        <time>2023-04-18T14:24:10.223Z</time>
      </trkpt>
      <trkpt lat="44.60412" lon="2.63942">
        <ele>654.26</ele>
        <time>2023-04-18T14:24:20.634Z</time>
      </trkpt>
      <trkpt lat="44.60416" lon="2.6396">
        <ele>656.26</ele>
        <time>2023-04-18T14:24:31.095Z</time>
      </trkpt>
      <trkpt lat="44.60418" lon="2.63978">
        <ele>656.26</ele>
        <time>2023-04-18T14:24:41.444Z</time>
      </trkpt>
      <trkpt lat="44.60419" lon="2.63997">
        <ele>655.26</ele>
        <time>2023-04-18T14:24:51.925Z</time>
      </trkpt>
      <trkpt lat="44.6042" lon="2.64015">
        <ele>655.26</ele>
        <time>2023-04-18T14:25:02.163Z</time>
      </trkpt>
      <trkpt lat="44.60421" lon="2.64035">
        <ele>656.26</ele>
        <time>2023-04-18T14:25:12.684Z</time>
      </trkpt>
      <trkpt lat="44.60419" lon="2.64052">
        <ele>655.26</ele>
        <time>2023-04-18T14:25:22.924Z</time>
      </trkpt>
      <trkpt lat="44.60413" lon="2.6407">
        <ele>656.25</ele>
        <time>2023-04-18T14:25:33.454Z</time>
      </trkpt>
      <trkpt lat="44.60405" lon="2.64087">
        <ele>656.25</ele>
        <time>2023-04-18T14:25:44.243Z</time>
      </trkpt>
      <trkpt lat="44.60399" lon="2.64105">
        <ele>656.25</ele>
        <time>2023-04-18T14:25:54.585Z</time>
      </trkpt>
      <trkpt lat="44.60392" lon="2.64119">
        <ele>657.19</ele>
        <time>2023-04-18T14:26:05.084Z</time>
      </trkpt>
      <trkpt lat="44.60386" lon="2.64134">
        <ele>657.25</ele>
        <time>2023-04-18T14:26:15.365Z</time>
      </trkpt>
      <trkpt lat="44.6038" lon="2.64148">
        <ele>658.24</ele>
        <time>2023-04-18T14:26:25.865Z</time>
      </trkpt>
      <trkpt lat="44.60373" lon="2.64163">
        <ele>657.25</ele>
        <time>2023-04-18T14:26:36.221Z</time>
      </trkpt>
      <trkpt lat="44.60366" lon="2.64178">
        <ele>657.25</ele>
        <time>2023-04-18T14:26:46.555Z</time>
      </trkpt>
      <trkpt lat="44.60357" lon="2.64193">
        <ele>655.25</ele>
        <time>2023-04-18T14:26:56.984Z</time>
      </trkpt>
      <trkpt lat="44.6035" lon="2.64209">
        <ele>655.27</ele>
        <time>2023-04-18T14:27:07.516Z</time>
      </trkpt>
      <trkpt lat="44.60344" lon="2.64226">
        <ele>656.25</ele>
        <time>2023-04-18T14:27:17.977Z</time>
      </trkpt>
      <trkpt lat="44.60339" lon="2.64243">
        <ele>656.25</ele>
        <time>2023-04-18T14:27:28.354Z</time>
      </trkpt>
      <trkpt lat="44.60336" lon="2.6426">
        <ele>657.25</ele>
        <time>2023-04-18T14:27:38.723Z</time>
      </trkpt>
      <trkpt lat="44.60333" lon="2.64278">
        <ele>657.25</ele>
        <time>2023-04-18T14:27:49.105Z</time>
      </trkpt>
      <trkpt lat="44.60331" lon="2.64295">
        <ele>658.25</ele>
        <time>2023-04-18T14:27:59.355Z</time>
      </trkpt>
      <trkpt lat="44.6033" lon="2.64313">
        <ele>658.23</ele>
        <time>2023-04-18T14:28:09.762Z</time>
      </trkpt>
      <trkpt lat="44.60331" lon="2.64331">
        <ele>658.25</ele>
        <time>2023-04-18T14:28:20.064Z</time>
      </trkpt>
      <trkpt lat="44.60334" lon="2.6435">
        <ele>658.25</ele>
        <time>2023-04-18T14:28:30.423Z</time>
      </trkpt>
      <trkpt lat="44.60336" lon="2.64367">
        <ele>659.25</ele>
        <time>2023-04-18T14:28:40.621Z</time>
      </trkpt>
      <trkpt lat="44.60337" lon="2.64383">
        <ele>660.5</ele>
        <time>2023-04-18T14:28:51.003Z</time>
      </trkpt>
      <trkpt lat="44.60341" lon="2.64399">
        <ele>662.25</ele>
        <time>2023-04-18T14:29:01.355Z</time>
      </trkpt>
      <trkpt lat="44.60342" lon="2.64417">
        <ele>664.23</ele>
        <time>2023-04-18T14:29:11.665Z</time>
      </trkpt>
      <trkpt lat="44.60344" lon="2.64435">
        <ele>663.5</ele>
        <time>2023-04-18T14:29:21.922Z</time>
      </trkpt>
      <trkpt lat="44.60344" lon="2.64447">
        <ele>662.25</ele>
        <time>2023-04-18T14:29:32.354Z</time>
      </trkpt>
      <trkpt lat="44.60343" lon="2.64463">
        <ele>661.25</ele>
        <time>2023-04-18T14:29:42.642Z</time>
      </trkpt>
      <trkpt lat="44.60343" lon="2.64481">
        <ele>660.25</ele>
        <time>2023-04-18T14:29:53.094Z</time>
      </trkpt>
      <trkpt lat="44.60343" lon="2.645">
        <ele>658.5</ele>
        <time>2023-04-18T14:30:03.435Z</time>
      </trkpt>
      <trkpt lat="44.60343" lon="2.64518">
        <ele>657.25</ele>
        <time>2023-04-18T14:30:13.943Z</time>
      </trkpt>
      <trkpt lat="44.60342" lon="2.64537">
        <ele>657.25</ele>
        <time>2023-04-18T14:30:24.215Z</time>
      </trkpt>
      <trkpt lat="44.6034" lon="2.64554">
        <ele>655.25</ele>
        <time>2023-04-18T14:30:34.565Z</time>
      </trkpt>
      <trkpt lat="44.60337" lon="2.64561">
        <ele>654.25</ele>
        <time>2023-04-18T14:30:45.075Z</time>
      </trkpt>
      <trkpt lat="44.6033" lon="2.64578">
        <ele>653.25</ele>
        <time>2023-04-18T14:30:55.443Z</time>
      </trkpt>
      <trkpt lat="44.60324" lon="2.64593">
        <ele>653.25</ele>
        <time>2023-04-18T14:31:05.583Z</time>
      </trkpt>
      <trkpt lat="44.60317" lon="2.64611">
        <ele>651.31</ele>
        <time>2023-04-18T14:31:15.984Z</time>
      </trkpt>
      <trkpt lat="44.60311" lon="2.64627">
        <ele>651.24</ele>
        <time>2023-04-18T14:31:26.364Z</time>
      </trkpt>
      <trkpt lat="44.60304" lon="2.64644">
        <ele>650.24</ele>
        <time>2023-04-18T14:31:36.554Z</time>
      </trkpt>
      <trkpt lat="44.60298" lon="2.64661">
        <ele>649.24</ele>
        <time>2023-04-18T14:31:46.815Z</time>
      </trkpt>
      <trkpt lat="44.60291" lon="2.64677">
        <ele>649.24</ele>
        <time>2023-04-18T14:31:56.902Z</time>
      </trkpt>
      <trkpt lat="44.60286" lon="2.64693">
        <ele>648.24</ele>
        <time>2023-04-18T14:32:07.125Z</time>
      </trkpt>
      <trkpt lat="44.60279" lon="2.64709">
        <ele>646.24</ele>
        <time>2023-04-18T14:32:17.145Z</time>
      </trkpt>
      <trkpt lat="44.60275" lon="2.64723">
        <ele>647.24</ele>
        <time>2023-04-18T14:32:27.554Z</time>
      </trkpt>
      <trkpt lat="44.60268" lon="2.64741">
        <ele>646.26</ele>
        <time>2023-04-18T14:32:37.795Z</time>
      </trkpt>
      <trkpt lat="44.60263" lon="2.64757">
        <ele>645.49</ele>
        <time>2023-04-18T14:32:48.182Z</time>
      </trkpt>
      <trkpt lat="44.60258" lon="2.64774">
        <ele>644.24</ele>
        <time>2023-04-18T14:32:58.523Z</time>
      </trkpt>
      <trkpt lat="44.60255" lon="2.64792">
        <ele>645.24</ele>
        <time>2023-04-18T14:33:08.885Z</time>
      </trkpt>
      <trkpt lat="44.60253" lon="2.64809">
        <ele>645.24</ele>
        <time>2023-04-18T14:33:19.362Z</time>
      </trkpt>
      <trkpt lat="44.60253" lon="2.64825">
        <ele>645.24</ele>
        <time>2023-04-18T14:33:29.775Z</time>
      </trkpt>
      <trkpt lat="44.60252" lon="2.64843">
        <ele>646.24</ele>
        <time>2023-04-18T14:33:40.205Z</time>
      </trkpt>
      <trkpt lat="44.60252" lon="2.64861">
        <ele>645.24</ele>
        <time>2023-04-18T14:33:50.555Z</time>
      </trkpt>
      <trkpt lat="44.60252" lon="2.64881">
        <ele>644.49</ele>
        <time>2023-04-18T14:34:01.485Z</time>
      </trkpt>
      <trkpt lat="44.60252" lon="2.64884">
        <ele>644.24</ele>
        <time>2023-04-18T14:34:11.984Z</time>
      </trkpt>
      <trkpt lat="44.60251" lon="2.64904">
        <ele>644.24</ele>
        <time>2023-04-18T14:34:22.475Z</time>
      </trkpt>
      <trkpt lat="44.60251" lon="2.64923">
        <ele>645.24</ele>
        <time>2023-04-18T14:34:32.822Z</time>
      </trkpt>
      <trkpt lat="44.60251" lon="2.64941">
        <ele>644.24</ele>
        <time>2023-04-18T14:34:43.125Z</time>
      </trkpt>
      <trkpt lat="44.6025" lon="2.64959">
        <ele>644.48</ele>
        <time>2023-04-18T14:34:53.495Z</time>
      </trkpt>
      <trkpt lat="44.6025" lon="2.64976">
        <ele>643.49</ele>
        <time>2023-04-18T14:35:04.475Z</time>
      </trkpt>
      <trkpt lat="44.6025" lon="2.64973">
        <ele>642.24</ele>
        <time>2023-04-18T14:35:15.435Z</time>
      </trkpt>
      <trkpt lat="44.6025" lon="2.64972">
        <ele>644.22</ele>
        <time>2023-04-18T14:35:48.495Z</time>
      </trkpt>
      <trkpt lat="44.6025" lon="2.64973">
        <ele>644.24</ele>
        <time>2023-04-18T14:36:30.175Z</time>
      </trkpt>
      <trkpt lat="44.60249" lon="2.64975">
        <ele>642.3</ele>
        <time>2023-04-18T14:37:29.054Z</time>
      </trkpt>
      <trkpt lat="44.6025" lon="2.64977">
        <ele>641.19</ele>
        <time>2023-04-18T14:37:39.522Z</time>
      </trkpt>
      <trkpt lat="44.6025" lon="2.64973">
        <ele>640.24</ele>
        <time>2023-04-18T14:37:50.475Z</time>
      </trkpt>
      <trkpt lat="44.60249" lon="2.64981">
        <ele>639.24</ele>
        <time>2023-04-18T14:38:00.964Z</time>
      </trkpt>
      <trkpt lat="44.60248" lon="2.64998">
        <ele>639.24</ele>
        <time>2023-04-18T14:38:11.425Z</time>
      </trkpt>
      <trkpt lat="44.60247" lon="2.65015">
        <ele>638.24</ele>
        <time>2023-04-18T14:38:21.475Z</time>
      </trkpt>
      <trkpt lat="44.60245" lon="2.65033">
        <ele>636.25</ele>
        <time>2023-04-18T14:38:31.765Z</time>
      </trkpt>
      <trkpt lat="44.60244" lon="2.6505">
        <ele>635.24</ele>
        <time>2023-04-18T14:38:42.275Z</time>
      </trkpt>
      <trkpt lat="44.60242" lon="2.65069">
        <ele>634.24</ele>
        <time>2023-04-18T14:38:52.804Z</time>
      </trkpt>
      <trkpt lat="44.6024" lon="2.65084">
        <ele>633.05</ele>
        <time>2023-04-18T14:39:03.363Z</time>
      </trkpt>
      <trkpt lat="44.60238" lon="2.65104">
        <ele>632.24</ele>
        <time>2023-04-18T14:39:13.825Z</time>
      </trkpt>
      <trkpt lat="44.60233" lon="2.65123">
        <ele>633.24</ele>
        <time>2023-04-18T14:39:24.355Z</time>
      </trkpt>
      <trkpt lat="44.60227" lon="2.65139">
        <ele>632.25</ele>
        <time>2023-04-18T14:39:34.702Z</time>
      </trkpt>
      <trkpt lat="44.60221" lon="2.65157">
        <ele>633.24</ele>
        <time>2023-04-18T14:39:45.184Z</time>
      </trkpt>
      <trkpt lat="44.60218" lon="2.65175">
        <ele>634.23</ele>
        <time>2023-04-18T14:39:55.693Z</time>
      </trkpt>
      <trkpt lat="44.60213" lon="2.65192">
        <ele>635.23</ele>
        <time>2023-04-18T14:40:06.155Z</time>
      </trkpt>
      <trkpt lat="44.60207" lon="2.65211">
        <ele>634.23</ele>
        <time>2023-04-18T14:40:16.635Z</time>
      </trkpt>
      <trkpt lat="44.60203" lon="2.65231">
        <ele>633.23</ele>
        <time>2023-04-18T14:40:27.024Z</time>
      </trkpt>
      <trkpt lat="44.602" lon="2.65248">
        <ele>633.23</ele>
        <time>2023-04-18T14:40:37.024Z</time>
      </trkpt>
      <trkpt lat="44.60197" lon="2.65263">
        <ele>633.23</ele>
        <time>2023-04-18T14:40:47.505Z</time>
      </trkpt>
      <trkpt lat="44.60194" lon="2.65281">
        <ele>633.23</ele>
        <time>2023-04-18T14:40:57.545Z</time>
      </trkpt>
      <trkpt lat="44.60192" lon="2.653">
        <ele>633.23</ele>
        <time>2023-04-18T14:41:07.835Z</time>
      </trkpt>
      <trkpt lat="44.60191" lon="2.65319">
        <ele>634.23</ele>
        <time>2023-04-18T14:41:18.305Z</time>
      </trkpt>
      <trkpt lat="44.60189" lon="2.65337">
        <ele>635.22</ele>
        <time>2023-04-18T14:41:28.745Z</time>
      </trkpt>
      <trkpt lat="44.60187" lon="2.65355">
        <ele>635.23</ele>
        <time>2023-04-18T14:41:39.023Z</time>
      </trkpt>
      <trkpt lat="44.60187" lon="2.65374">
        <ele>635.23</ele>
        <time>2023-04-18T14:41:49.474Z</time>
      </trkpt>
      <trkpt lat="44.60185" lon="2.65394">
        <ele>634.23</ele>
        <time>2023-04-18T14:42:00.447Z</time>
      </trkpt>
      <trkpt lat="44.60185" lon="2.65414">
        <ele>635.22</ele>
        <time>2023-04-18T14:42:10.935Z</time>
      </trkpt>
      <trkpt lat="44.60185" lon="2.65431">
        <ele>634.22</ele>
        <time>2023-04-18T14:42:21.403Z</time>
      </trkpt>
      <trkpt lat="44.60187" lon="2.65449">
        <ele>634.23</ele>
        <time>2023-04-18T14:42:31.765Z</time>
      </trkpt>
      <trkpt lat="44.60188" lon="2.65468">
        <ele>634.23</ele>
        <time>2023-04-18T14:42:42.195Z</time>
      </trkpt>
      <trkpt lat="44.60189" lon="2.65487">
        <ele>634.23</ele>
        <time>2023-04-18T14:42:52.484Z</time>
      </trkpt>
      <trkpt lat="44.6019" lon="2.65505">
        <ele>634.21</ele>
        <time>2023-04-18T14:43:02.865Z</time>
      </trkpt>
      <trkpt lat="44.60193" lon="2.65524">
        <ele>635.23</ele>
        <time>2023-04-18T14:43:13.346Z</time>
      </trkpt>
      <trkpt lat="44.60194" lon="2.65544">
        <ele>634.48</ele>
        <time>2023-04-18T14:43:24.302Z</time>
      </trkpt>
      <trkpt lat="44.60195" lon="2.65562">
        <ele>634.23</ele>
        <time>2023-04-18T14:43:34.535Z</time>
      </trkpt>
      <trkpt lat="44.60197" lon="2.6558">
        <ele>634.23</ele>
        <time>2023-04-18T14:43:44.895Z</time>
      </trkpt>
      <trkpt lat="44.60199" lon="2.65597">
        <ele>634.23</ele>
        <time>2023-04-18T14:43:55.314Z</time>
      </trkpt>
      <trkpt lat="44.60202" lon="2.65615">
        <ele>633.23</ele>
        <time>2023-04-18T14:44:05.835Z</time>
      </trkpt>
      <trkpt lat="44.60204" lon="2.65633">
        <ele>633.23</ele>
        <time>2023-04-18T14:44:16.084Z</time>
      </trkpt>
      <trkpt lat="44.60208" lon="2.65651">
        <ele>633.23</ele>
        <time>2023-04-18T14:44:26.554Z</time>
      </trkpt>
      <trkpt lat="44.6021" lon="2.65667">
        <ele>633.23</ele>
        <time>2023-04-18T14:44:36.963Z</time>
      </trkpt>
      <trkpt lat="44.60213" lon="2.65683">
        <ele>634.23</ele>
        <time>2023-04-18T14:44:47.024Z</time>
      </trkpt>
      <trkpt lat="44.60216" lon="2.65699">
        <ele>634.22</ele>
        <time>2023-04-18T14:44:57.535Z</time>
      </trkpt>
      <trkpt lat="44.60219" lon="2.65716">
        <ele>634.22</ele>
        <time>2023-04-18T14:45:07.542Z</time>
      </trkpt>
      <trkpt lat="44.60222" lon="2.65734">
        <ele>635.22</ele>
        <time>2023-04-18T14:45:17.985Z</time>
      </trkpt>
      <trkpt lat="44.60224" lon="2.65751">
        <ele>636.97</ele>
        <time>2023-04-18T14:45:28.496Z</time>
      </trkpt>
      <trkpt lat="44.60224" lon="2.65767">
        <ele>637.22</ele>
        <time>2023-04-18T14:45:38.915Z</time>
      </trkpt>
      <trkpt lat="44.60226" lon="2.65784">
        <ele>636.46</ele>
        <time>2023-04-18T14:45:48.924Z</time>
      </trkpt>
      <trkpt lat="44.60229" lon="2.65802">
        <ele>636.97</ele>
        <time>2023-04-18T14:45:59.485Z</time>
      </trkpt>
      <trkpt lat="44.60232" lon="2.65819">
        <ele>637.22</ele>
        <time>2023-04-18T14:46:10.004Z</time>
      </trkpt>
      <trkpt lat="44.60235" lon="2.6584">
        <ele>639.22</ele>
        <time>2023-04-18T14:46:20.525Z</time>
      </trkpt>
      <trkpt lat="44.60234" lon="2.65844">
        <ele>639.22</ele>
        <time>2023-04-18T14:46:30.573Z</time>
      </trkpt>
      <trkpt lat="44.60229" lon="2.65841">
        <ele>636.46</ele>
        <time>2023-04-18T14:46:41.581Z</time>
      </trkpt>
      <trkpt lat="44.60222" lon="2.65842">
        <ele>635.22</ele>
        <time>2023-04-18T14:46:51.862Z</time>
      </trkpt>
      <trkpt lat="44.60211" lon="2.65846">
        <ele>636.22</ele>
        <time>2023-04-18T14:47:02.355Z</time>
      </trkpt>
      <trkpt lat="44.602" lon="2.65846">
        <ele>634.22</ele>
        <time>2023-04-18T14:47:12.735Z</time>
      </trkpt>
      <trkpt lat="44.60191" lon="2.65846">
        <ele>635.22</ele>
        <time>2023-04-18T14:47:22.735Z</time>
      </trkpt>
      <trkpt lat="44.6018" lon="2.65847">
        <ele>635.03</ele>
        <time>2023-04-18T14:47:33.105Z</time>
      </trkpt>
      <trkpt lat="44.60176" lon="2.65847">
        <ele>635.22</ele>
        <time>2023-04-18T14:47:43.604Z</time>
      </trkpt>
      <trkpt lat="44.60176" lon="2.65849">
        <ele>635.22</ele>
        <time>2023-04-18T14:48:04.581Z</time>
      </trkpt>
      <trkpt lat="44.60171" lon="2.65851">
        <ele>635.22</ele>
        <time>2023-04-18T14:48:14.823Z</time>
      </trkpt>
      <trkpt lat="44.60163" lon="2.65851">
        <ele>633.29</ele>
        <time>2023-04-18T14:48:25.394Z</time>
      </trkpt>
      <trkpt lat="44.6016" lon="2.65849">
        <ele>634.22</ele>
        <time>2023-04-18T14:48:36.404Z</time>
      </trkpt>
      <trkpt lat="44.6016" lon="2.6585">
        <ele>632.29</ele>
        <time>2023-04-18T14:48:57.324Z</time>
      </trkpt>
      <trkpt lat="44.60155" lon="2.65858">
        <ele>631.22</ele>
        <time>2023-04-18T14:49:07.864Z</time>
      </trkpt>
      <trkpt lat="44.6015" lon="2.65869">
        <ele>633.22</ele>
        <time>2023-04-18T14:49:18.295Z</time>
      </trkpt>
      <trkpt lat="44.60145" lon="2.65879">
        <ele>632.22</ele>
        <time>2023-04-18T14:49:28.633Z</time>
      </trkpt>
      <trkpt lat="44.60139" lon="2.65889">
        <ele>631.22</ele>
        <time>2023-04-18T14:49:39.024Z</time>
      </trkpt>
      <trkpt lat="44.60134" lon="2.659">
        <ele>627.28</ele>
        <time>2023-04-18T14:49:49.564Z</time>
      </trkpt>
      <trkpt lat="44.60129" lon="2.6591">
        <ele>626.22</ele>
        <time>2023-04-18T14:49:59.985Z</time>
      </trkpt>
      <trkpt lat="44.60125" lon="2.65926">
        <ele>625.22</ele>
        <time>2023-04-18T14:50:10.375Z</time>
      </trkpt>
      <trkpt lat="44.60118" lon="2.65943">
        <ele>622.47</ele>
        <time>2023-04-18T14:50:20.694Z</time>
      </trkpt>
      <trkpt lat="44.60111" lon="2.65955">
        <ele>620.22</ele>
        <time>2023-04-18T14:50:31.255Z</time>
      </trkpt>
      <trkpt lat="44.60103" lon="2.65967">
        <ele>620.97</ele>
        <time>2023-04-18T14:50:41.611Z</time>
      </trkpt>
      <trkpt lat="44.60092" lon="2.65977">
        <ele>619.22</ele>
        <time>2023-04-18T14:50:52.622Z</time>
      </trkpt>
      <trkpt lat="44.60084" lon="2.65985">
        <ele>619.22</ele>
        <time>2023-04-18T14:51:03.515Z</time>
      </trkpt>
      <trkpt lat="44.60083" lon="2.65986">
        <ele>622.23</ele>
        <time>2023-04-18T14:51:14.474Z</time>
      </trkpt>
      <trkpt lat="44.60082" lon="2.6599">
        <ele>622.22</ele>
        <time>2023-04-18T14:51:25.596Z</time>
      </trkpt>
      <trkpt lat="44.60081" lon="2.65989">
        <ele>629.97</ele>
        <time>2023-04-18T14:51:43.534Z</time>
      </trkpt>
      <trkpt lat="44.60076" lon="2.65989">
        <ele>639.92</ele>
        <time>2023-04-18T14:51:54.424Z</time>
      </trkpt>
      <trkpt lat="44.60077" lon="2.65989">
        <ele>641.4</ele>
        <time>2023-04-18T14:52:12.545Z</time>
      </trkpt>
      <trkpt lat="44.60078" lon="2.6599">
        <ele>641.22</ele>
        <time>2023-04-18T14:52:22.975Z</time>
      </trkpt>
      <trkpt lat="44.60073" lon="2.65998">
        <ele>642.22</ele>
        <time>2023-04-18T14:52:33.304Z</time>
      </trkpt>
      <trkpt lat="44.60063" lon="2.66004">
        <ele>639.24</ele>
        <time>2023-04-18T14:52:43.705Z</time>
      </trkpt>
      <trkpt lat="44.60052" lon="2.66004">
        <ele>638.47</ele>
        <time>2023-04-18T14:52:54.162Z</time>
      </trkpt>
      <trkpt lat="44.60044" lon="2.66006">
        <ele>641.2</ele>
        <time>2023-04-18T14:53:04.583Z</time>
      </trkpt>
      <trkpt lat="44.60038" lon="2.66006">
        <ele>644.22</ele>
        <time>2023-04-18T14:53:14.655Z</time>
      </trkpt>
      <trkpt lat="44.6003" lon="2.66006">
        <ele>645.22</ele>
        <time>2023-04-18T14:53:25.155Z</time>
      </trkpt>
      <trkpt lat="44.60021" lon="2.66008">
        <ele>644.22</ele>
        <time>2023-04-18T14:53:35.585Z</time>
      </trkpt>
      <trkpt lat="44.60009" lon="2.66011">
        <ele>646.16</ele>
        <time>2023-04-18T14:53:46.004Z</time>
      </trkpt>
      <trkpt lat="44.59998" lon="2.66014">
        <ele>647.47</ele>
        <time>2023-04-18T14:53:56.445Z</time>
      </trkpt>
      <trkpt lat="44.59988" lon="2.66016">
        <ele>650.2</ele>
        <time>2023-04-18T14:54:06.944Z</time>
      </trkpt>
      <trkpt lat="44.59978" lon="2.66016">
        <ele>651.22</ele>
        <time>2023-04-18T14:54:17.334Z</time>
      </trkpt>
      <trkpt lat="44.59973" lon="2.66015">
        <ele>649.31</ele>
        <time>2023-04-18T14:54:28.196Z</time>
      </trkpt>
      <trkpt lat="44.59967" lon="2.66017">
        <ele>647.24</ele>
        <time>2023-04-18T14:54:38.646Z</time>
      </trkpt>
      <trkpt lat="44.59957" lon="2.66014">
        <ele>648.22</ele>
        <time>2023-04-18T14:54:49.154Z</time>
      </trkpt>
      <trkpt lat="44.59947" lon="2.66007">
        <ele>650.22</ele>
        <time>2023-04-18T14:54:59.522Z</time>
      </trkpt>
      <trkpt lat="44.59937" lon="2.66002">
        <ele>649.22</ele>
        <time>2023-04-18T14:55:10.005Z</time>
      </trkpt>
      <trkpt lat="44.59929" lon="2.65997">
        <ele>650.72</ele>
        <time>2023-04-18T14:55:20.475Z</time>
      </trkpt>
      <trkpt lat="44.59918" lon="2.6599">
        <ele>652.47</ele>
        <time>2023-04-18T14:55:30.765Z</time>
      </trkpt>
      <trkpt lat="44.59906" lon="2.65985">
        <ele>652.97</ele>
        <time>2023-04-18T14:55:41.285Z</time>
      </trkpt>
      <trkpt lat="44.59898" lon="2.65985">
        <ele>656.22</ele>
        <time>2023-04-18T14:55:51.614Z</time>
      </trkpt>
      <trkpt lat="44.59889" lon="2.65982">
        <ele>656.22</ele>
        <time>2023-04-18T14:56:02.035Z</time>
      </trkpt>
      <trkpt lat="44.5988" lon="2.65979">
        <ele>656.22</ele>
        <time>2023-04-18T14:56:12.374Z</time>
      </trkpt>
      <trkpt lat="44.59872" lon="2.6597">
        <ele>658.22</ele>
        <time>2023-04-18T14:56:23.404Z</time>
      </trkpt>
      <trkpt lat="44.59865" lon="2.65961">
        <ele>660.22</ele>
        <time>2023-04-18T14:56:33.784Z</time>
      </trkpt>
      <trkpt lat="44.59861" lon="2.65952">
        <ele>661.16</ele>
        <time>2023-04-18T14:56:44.165Z</time>
      </trkpt>
      <trkpt lat="44.59854" lon="2.65946">
        <ele>660.22</ele>
        <time>2023-04-18T14:56:54.575Z</time>
      </trkpt>
      <trkpt lat="44.59842" lon="2.6594">
        <ele>662.22</ele>
        <time>2023-04-18T14:57:05.065Z</time>
      </trkpt>
      <trkpt lat="44.59832" lon="2.65931">
        <ele>664.03</ele>
        <time>2023-04-18T14:57:15.354Z</time>
      </trkpt>
      <trkpt lat="44.59823" lon="2.65926">
        <ele>667.22</ele>
        <time>2023-04-18T14:57:25.785Z</time>
      </trkpt>
      <trkpt lat="44.59812" lon="2.65921">
        <ele>667.46</ele>
        <time>2023-04-18T14:57:36.225Z</time>
      </trkpt>
      <trkpt lat="44.59799" lon="2.65918">
        <ele>669.22</ele>
        <time>2023-04-18T14:57:46.535Z</time>
      </trkpt>
      <trkpt lat="44.59787" lon="2.65921">
        <ele>669.47</ele>
        <time>2023-04-18T14:57:57.095Z</time>
      </trkpt>
      <trkpt lat="44.59775" lon="2.65925">
        <ele>670.24</ele>
        <time>2023-04-18T14:58:07.315Z</time>
      </trkpt>
      <trkpt lat="44.59761" lon="2.65928">
        <ele>671.22</ele>
        <time>2023-04-18T14:58:17.605Z</time>
      </trkpt>
      <trkpt lat="44.59748" lon="2.65932">
        <ele>671.24</ele>
        <time>2023-04-18T14:58:27.995Z</time>
      </trkpt>
      <trkpt lat="44.59736" lon="2.65934">
        <ele>671.28</ele>
        <time>2023-04-18T14:58:38.195Z</time>
      </trkpt>
      <trkpt lat="44.59724" lon="2.65939">
        <ele>671.21</ele>
        <time>2023-04-18T14:58:48.725Z</time>
      </trkpt>
      <trkpt lat="44.59711" lon="2.65944">
        <ele>671.22</ele>
        <time>2023-04-18T14:58:59.103Z</time>
      </trkpt>
      <trkpt lat="44.59698" lon="2.65949">
        <ele>671.22</ele>
        <time>2023-04-18T14:59:09.346Z</time>
      </trkpt>
      <trkpt lat="44.59693" lon="2.65951">
        <ele>672.27</ele>
        <time>2023-04-18T14:59:19.704Z</time>
      </trkpt>
      <trkpt lat="44.59694" lon="2.65952">
        <ele>671.47</ele>
        <time>2023-04-18T14:59:30.614Z</time>
      </trkpt>
      <trkpt lat="44.59692" lon="2.65954">
        <ele>670.22</ele>
        <time>2023-04-18T14:59:41.103Z</time>
      </trkpt>
      <trkpt lat="44.5968" lon="2.65964">
        <ele>669.22</ele>
        <time>2023-04-18T14:59:51.103Z</time>
      </trkpt>
      <trkpt lat="44.5967" lon="2.65974">
        <ele>667.47</ele>
        <time>2023-04-18T15:00:01.515Z</time>
      </trkpt>
      <trkpt lat="44.59664" lon="2.65992">
        <ele>666.47</ele>
        <time>2023-04-18T15:00:11.854Z</time>
      </trkpt>
      <trkpt lat="44.59669" lon="2.66011">
        <ele>666.97</ele>
        <time>2023-04-18T15:00:22.225Z</time>
      </trkpt>
      <trkpt lat="44.59678" lon="2.66029">
        <ele>666.41</ele>
        <time>2023-04-18T15:00:33.214Z</time>
      </trkpt>
      <trkpt lat="44.59683" lon="2.66045">
        <ele>665.22</ele>
        <time>2023-04-18T15:00:43.614Z</time>
      </trkpt>
      <trkpt lat="44.59687" lon="2.66061">
        <ele>665.22</ele>
        <time>2023-04-18T15:00:54.095Z</time>
      </trkpt>
      <trkpt lat="44.5969" lon="2.66079">
        <ele>665.22</ele>
        <time>2023-04-18T15:01:04.275Z</time>
      </trkpt>
      <trkpt lat="44.59692" lon="2.66098">
        <ele>665.23</ele>
        <time>2023-04-18T15:01:14.613Z</time>
      </trkpt>
      <trkpt lat="44.59696" lon="2.66117">
        <ele>665.22</ele>
        <time>2023-04-18T15:01:24.965Z</time>
      </trkpt>
      <trkpt lat="44.59703" lon="2.66133">
        <ele>665.22</ele>
        <time>2023-04-18T15:01:35.414Z</time>
      </trkpt>
      <trkpt lat="44.59715" lon="2.6614">
        <ele>665.23</ele>
        <time>2023-04-18T15:01:45.704Z</time>
      </trkpt>
      <trkpt lat="44.59727" lon="2.66146">
        <ele>665.22</ele>
        <time>2023-04-18T15:01:56.615Z</time>
      </trkpt>
      <trkpt lat="44.59735" lon="2.66149">
        <ele>666.17</ele>
        <time>2023-04-18T15:02:07.065Z</time>
      </trkpt>
      <trkpt lat="44.59747" lon="2.66152">
        <ele>666.22</ele>
        <time>2023-04-18T15:02:17.414Z</time>
      </trkpt>
      <trkpt lat="44.59761" lon="2.66154">
        <ele>665.22</ele>
        <time>2023-04-18T15:02:27.755Z</time>
      </trkpt>
      <trkpt lat="44.59775" lon="2.66153">
        <ele>663.22</ele>
        <time>2023-04-18T15:02:38.084Z</time>
      </trkpt>
      <trkpt lat="44.59788" lon="2.66154">
        <ele>664.22</ele>
        <time>2023-04-18T15:02:48.444Z</time>
      </trkpt>
      <trkpt lat="44.59799" lon="2.66148">
        <ele>663.22</ele>
        <time>2023-04-18T15:02:58.865Z</time>
      </trkpt>
      <trkpt lat="44.59811" lon="2.66146">
        <ele>664.97</ele>
        <time>2023-04-18T15:03:09.014Z</time>
      </trkpt>
      <trkpt lat="44.59822" lon="2.66151">
        <ele>667.22</ele>
        <time>2023-04-18T15:03:19.385Z</time>
      </trkpt>
      <trkpt lat="44.59831" lon="2.66164">
        <ele>666.22</ele>
        <time>2023-04-18T15:03:30.334Z</time>
      </trkpt>
      <trkpt lat="44.59836" lon="2.66178">
        <ele>666.22</ele>
        <time>2023-04-18T15:03:40.765Z</time>
      </trkpt>
      <trkpt lat="44.59837" lon="2.66177">
        <ele>668.22</ele>
        <time>2023-04-18T15:03:51.624Z</time>
      </trkpt>
      <trkpt lat="44.59838" lon="2.66178">
        <ele>668.22</ele>
        <time>2023-04-18T15:04:02.599Z</time>
      </trkpt>
      <trkpt lat="44.59839" lon="2.66179">
        <ele>669.15</ele>
        <time>2023-04-18T15:04:38.589Z</time>
      </trkpt>
      <trkpt lat="44.5984" lon="2.66177">
        <ele>671.21</ele>
        <time>2023-04-18T15:04:48.885Z</time>
      </trkpt>
      <trkpt lat="44.59831" lon="2.66186">
        <ele>669.22</ele>
        <time>2023-04-18T15:04:59.194Z</time>
      </trkpt>
      <trkpt lat="44.59826" lon="2.66183">
        <ele>670.15</ele>
        <time>2023-04-18T15:05:09.584Z</time>
      </trkpt>
      <trkpt lat="44.59827" lon="2.66183">
        <ele>671.22</ele>
        <time>2023-04-18T15:05:20.455Z</time>
      </trkpt>
    </trkseg>
  </trk>
</gpx>